<?xml version="1.0" encoding="UTF-8" standalone="no" ?>
<gpx xmlns="http://www.topografix.com/GPX/1/1" xmlns:xsi="http://www.w3.org/2001/XMLSchema-instance" xsi:schemaLocation="http://www.topografix.com/GPX/1/1 http://www.topografix.com/GPX/1/1/gpx.xsd" version="1.1" creator="VisuGPX - https://www.visugpx.com">
  <metadata>
    <name>Nol-Sèchemer-Lac des Corbeaux- Machais-Blanchemer-Nol</name>
    <desc><![CDATA[Petite balade autour des lacs de Sèchemer, des Corbeaux, et Blanchemer.]]></desc>
  </metadata>
  <trk>
    <name><![CDATA[Nol-Sèchemer-Corbeaux-Blanchemer-Nol]]></name>
    <cmt><![CDATA[callardin.free.fr]]></cmt>
    <trkseg>
      <trkpt lat="48.01342" lon="6.94142">
        <ele>765.32373046875</ele>
        <time>2018-05-01T10:27:46Z</time>
      </trkpt>
      <trkpt lat="48.01345" lon="6.9414">
        <ele>765.32373046875</ele>
        <time>2018-05-01T10:27:46Z</time>
      </trkpt>
      <trkpt lat="48.01366" lon="6.94155">
        <ele>767.18212890625</ele>
        <time>2018-05-01T10:27:47Z</time>
      </trkpt>
      <trkpt lat="48.014" lon="6.94173">
        <ele>770.46057128906</ele>
        <time>2018-05-01T10:27:53Z</time>
      </trkpt>
      <trkpt lat="48.01454" lon="6.94186">
        <ele>776.47882080078</ele>
        <time>2018-05-01T10:28:03Z</time>
      </trkpt>
      <trkpt lat="48.01499" lon="6.94211">
        <ele>780.00244140625</ele>
        <time>2018-05-01T10:28:18Z</time>
      </trkpt>
      <trkpt lat="48.0154" lon="6.94228">
        <ele>785.67053222656</ele>
        <time>2018-05-01T10:28:31Z</time>
      </trkpt>
      <trkpt lat="48.01576" lon="6.94232">
        <ele>790.80804443359</ele>
        <time>2018-05-01T10:28:42Z</time>
      </trkpt>
      <trkpt lat="48.01598" lon="6.94241">
        <ele>792.40863037109</ele>
        <time>2018-05-01T10:28:52Z</time>
      </trkpt>
      <trkpt lat="48.01638" lon="6.9426">
        <ele>797.53491210938</ele>
        <time>2018-05-01T10:28:58Z</time>
      </trkpt>
      <trkpt lat="48.01702" lon="6.94286">
        <ele>806.83270263672</ele>
        <time>2018-05-01T10:29:09Z</time>
      </trkpt>
      <trkpt lat="48.01726" lon="6.943">
        <ele>810.55145263672</ele>
        <time>2018-05-01T10:29:27Z</time>
      </trkpt>
      <trkpt lat="48.01738" lon="6.94315">
        <ele>812.47137451172</ele>
        <time>2018-05-01T10:29:34Z</time>
      </trkpt>
      <trkpt lat="48.01748" lon="6.94346">
        <ele>811.98596191406</ele>
        <time>2018-05-01T10:29:38Z</time>
      </trkpt>
      <trkpt lat="48.01757" lon="6.94381">
        <ele>808.26568603516</ele>
        <time>2018-05-01T10:29:44Z</time>
      </trkpt>
      <trkpt lat="48.01769" lon="6.94414">
        <ele>806.58905029297</ele>
        <time>2018-05-01T10:29:51Z</time>
      </trkpt>
      <trkpt lat="48.01782" lon="6.94435">
        <ele>806.43176269531</ele>
        <time>2018-05-01T10:29:58Z</time>
      </trkpt>
      <trkpt lat="48.01799" lon="6.94451">
        <ele>807.40399169922</ele>
        <time>2018-05-01T10:30:03Z</time>
      </trkpt>
      <trkpt lat="48.01802" lon="6.94457">
        <ele>806.78851318359</ele>
        <time>2018-05-01T10:30:08Z</time>
      </trkpt>
      <trkpt lat="48.01802" lon="6.94457">
        <ele>806.78851318359</ele>
        <time>2018-05-01T10:30:09Z</time>
      </trkpt>
      <trkpt lat="48.01818" lon="6.94482">
        <ele>807.28802490234</ele>
        <time>2018-05-01T10:30:09Z</time>
      </trkpt>
      <trkpt lat="48.01799" lon="6.9443">
        <ele>812.51684570312</ele>
        <time>2018-05-01T10:30:15Z</time>
      </trkpt>
      <trkpt lat="48.01786" lon="6.94388">
        <ele>816.13665771484</ele>
        <time>2018-05-01T10:30:26Z</time>
      </trkpt>
      <trkpt lat="48.01779" lon="6.94377">
        <ele>816.89337158203</ele>
        <time>2018-05-01T10:30:34Z</time>
      </trkpt>
      <trkpt lat="48.01778" lon="6.94372">
        <ele>817.95916748047</ele>
        <time>2018-05-01T10:30:37Z</time>
      </trkpt>
      <trkpt lat="48.01763" lon="6.94291">
        <ele>824.0205078125</ele>
        <time>2018-05-01T10:30:38Z</time>
      </trkpt>
      <trkpt lat="48.01742" lon="6.9419">
        <ele>833.43365478516</ele>
        <time>2018-05-01T10:30:53Z</time>
      </trkpt>
      <trkpt lat="48.01736" lon="6.94159">
        <ele>837.2080078125</ele>
        <time>2018-05-01T10:31:12Z</time>
      </trkpt>
      <trkpt lat="48.01736" lon="6.94148">
        <ele>838.74633789062</ele>
        <time>2018-05-01T10:31:18Z</time>
      </trkpt>
      <trkpt lat="48.01741" lon="6.94147">
        <ele>840.11584472656</ele>
        <time>2018-05-01T10:31:20Z</time>
      </trkpt>
      <trkpt lat="48.01772" lon="6.94171">
        <ele>845.43768310547</ele>
        <time>2018-05-01T10:31:21Z</time>
      </trkpt>
      <trkpt lat="48.01793" lon="6.94196">
        <ele>849.68426513672</ele>
        <time>2018-05-01T10:31:30Z</time>
      </trkpt>
      <trkpt lat="48.01799" lon="6.94193">
        <ele>851.66430664062</ele>
        <time>2018-05-01T10:31:37Z</time>
      </trkpt>
      <trkpt lat="48.01793" lon="6.94135">
        <ele>856.490234375</ele>
        <time>2018-05-01T10:31:39Z</time>
      </trkpt>
      <trkpt lat="48.01793" lon="6.94135">
        <ele>856.490234375</ele>
        <time>2018-05-01T10:31:49Z</time>
      </trkpt>
      <trkpt lat="48.01799" lon="6.94193">
        <ele>851.66430664062</ele>
        <time>2018-05-01T10:31:49Z</time>
      </trkpt>
      <trkpt lat="48.01793" lon="6.94196">
        <ele>849.68426513672</ele>
        <time>2018-05-01T10:31:59Z</time>
      </trkpt>
      <trkpt lat="48.01772" lon="6.94171">
        <ele>845.43768310547</ele>
        <time>2018-05-01T10:32:01Z</time>
      </trkpt>
      <trkpt lat="48.01741" lon="6.94147">
        <ele>840.11584472656</ele>
        <time>2018-05-01T10:32:08Z</time>
      </trkpt>
      <trkpt lat="48.01736" lon="6.94148">
        <ele>838.74633789062</ele>
        <time>2018-05-01T10:32:17Z</time>
      </trkpt>
      <trkpt lat="48.01736" lon="6.94159">
        <ele>837.2080078125</ele>
        <time>2018-05-01T10:32:18Z</time>
      </trkpt>
      <trkpt lat="48.01742" lon="6.9419">
        <ele>833.43365478516</ele>
        <time>2018-05-01T10:32:20Z</time>
      </trkpt>
      <trkpt lat="48.01763" lon="6.94291">
        <ele>824.0205078125</ele>
        <time>2018-05-01T10:32:26Z</time>
      </trkpt>
      <trkpt lat="48.01778" lon="6.94372">
        <ele>817.95916748047</ele>
        <time>2018-05-01T10:32:45Z</time>
      </trkpt>
      <trkpt lat="48.01779" lon="6.94377">
        <ele>816.89337158203</ele>
        <time>2018-05-01T10:33:00Z</time>
      </trkpt>
      <trkpt lat="48.01786" lon="6.94388">
        <ele>816.13665771484</ele>
        <time>2018-05-01T10:33:01Z</time>
      </trkpt>
      <trkpt lat="48.01799" lon="6.9443">
        <ele>812.51684570312</ele>
        <time>2018-05-01T10:33:04Z</time>
      </trkpt>
      <trkpt lat="48.01818" lon="6.94482">
        <ele>807.28802490234</ele>
        <time>2018-05-01T10:33:12Z</time>
      </trkpt>
      <trkpt lat="48.01799" lon="6.94451">
        <ele>807.40399169922</ele>
        <time>2018-05-01T10:33:23Z</time>
      </trkpt>
      <trkpt lat="48.01782" lon="6.94435">
        <ele>806.43176269531</ele>
        <time>2018-05-01T10:33:31Z</time>
      </trkpt>
      <trkpt lat="48.01769" lon="6.94414">
        <ele>806.58905029297</ele>
        <time>2018-05-01T10:33:36Z</time>
      </trkpt>
      <trkpt lat="48.01757" lon="6.94381">
        <ele>808.26568603516</ele>
        <time>2018-05-01T10:33:41Z</time>
      </trkpt>
      <trkpt lat="48.01748" lon="6.94346">
        <ele>811.98596191406</ele>
        <time>2018-05-01T10:33:48Z</time>
      </trkpt>
      <trkpt lat="48.01738" lon="6.94315">
        <ele>812.47137451172</ele>
        <time>2018-05-01T10:33:55Z</time>
      </trkpt>
      <trkpt lat="48.01726" lon="6.943">
        <ele>810.55145263672</ele>
        <time>2018-05-01T10:34:01Z</time>
      </trkpt>
      <trkpt lat="48.01702" lon="6.94286">
        <ele>806.83270263672</ele>
        <time>2018-05-01T10:34:05Z</time>
      </trkpt>
      <trkpt lat="48.01638" lon="6.9426">
        <ele>797.53491210938</ele>
        <time>2018-05-01T10:34:12Z</time>
      </trkpt>
      <trkpt lat="48.01598" lon="6.94241">
        <ele>792.40863037109</ele>
        <time>2018-05-01T10:34:30Z</time>
      </trkpt>
      <trkpt lat="48.01576" lon="6.94232">
        <ele>790.80804443359</ele>
        <time>2018-05-01T10:34:41Z</time>
      </trkpt>
      <trkpt lat="48.0154" lon="6.94228">
        <ele>785.67053222656</ele>
        <time>2018-05-01T10:34:47Z</time>
      </trkpt>
      <trkpt lat="48.01499" lon="6.94211">
        <ele>780.00244140625</ele>
        <time>2018-05-01T10:34:57Z</time>
      </trkpt>
      <trkpt lat="48.01454" lon="6.94186">
        <ele>776.47882080078</ele>
        <time>2018-05-01T10:35:08Z</time>
      </trkpt>
      <trkpt lat="48.014" lon="6.94173">
        <ele>770.46057128906</ele>
        <time>2018-05-01T10:35:21Z</time>
      </trkpt>
      <trkpt lat="48.01366" lon="6.94155">
        <ele>767.18212890625</ele>
        <time>2018-05-01T10:35:36Z</time>
      </trkpt>
      <trkpt lat="48.01345" lon="6.9414">
        <ele>765.32373046875</ele>
        <time>2018-05-01T10:35:46Z</time>
      </trkpt>
      <trkpt lat="48.01343" lon="6.94146">
        <ele>763.78070068359</ele>
        <time>2018-05-01T10:35:52Z</time>
      </trkpt>
      <trkpt lat="48.01349" lon="6.94154">
        <ele>762.689453125</ele>
        <time>2018-05-01T10:35:53Z</time>
      </trkpt>
      <trkpt lat="48.0135" lon="6.94167">
        <ele>761.43133544922</ele>
        <time>2018-05-01T10:35:55Z</time>
      </trkpt>
      <trkpt lat="48.01347" lon="6.94175">
        <ele>760.91833496094</ele>
        <time>2018-05-01T10:35:57Z</time>
      </trkpt>
      <trkpt lat="48.01349" lon="6.94178">
        <ele>760.98620605469</ele>
        <time>2018-05-01T10:35:59Z</time>
      </trkpt>
      <trkpt lat="48.01392" lon="6.94222">
        <ele>763.53729248047</ele>
        <time>2018-05-01T10:36:00Z</time>
      </trkpt>
      <trkpt lat="48.01401" lon="6.9426">
        <ele>762.19268798828</ele>
        <time>2018-05-01T10:36:14Z</time>
      </trkpt>
      <trkpt lat="48.0144" lon="6.94377">
        <ele>762.13439941406</ele>
        <time>2018-05-01T10:36:21Z</time>
      </trkpt>
      <trkpt lat="48.01448" lon="6.94405">
        <ele>763.65924072266</ele>
        <time>2018-05-01T10:36:44Z</time>
      </trkpt>
      <trkpt lat="48.01444" lon="6.94408">
        <ele>763.36791992188</ele>
        <time>2018-05-01T10:36:49Z</time>
      </trkpt>
      <trkpt lat="48.01442" lon="6.94412">
        <ele>763.32666015625</ele>
        <time>2018-05-01T10:36:50Z</time>
      </trkpt>
      <trkpt lat="48.01413" lon="6.94455">
        <ele>766.62823486328</ele>
        <time>2018-05-01T10:36:51Z</time>
      </trkpt>
      <trkpt lat="48.01411" lon="6.9447">
        <ele>767.80364990234</ele>
        <time>2018-05-01T10:37:02Z</time>
      </trkpt>
      <trkpt lat="48.01414" lon="6.94488">
        <ele>769.57055664062</ele>
        <time>2018-05-01T10:37:05Z</time>
      </trkpt>
      <trkpt lat="48.01417" lon="6.94495">
        <ele>770.28479003906</ele>
        <time>2018-05-01T10:37:08Z</time>
      </trkpt>
      <trkpt lat="48.01411" lon="6.94496">
        <ele>770.23156738281</ele>
        <time>2018-05-01T10:37:09Z</time>
      </trkpt>
      <trkpt lat="48.01407" lon="6.94505">
        <ele>771.39587402344</ele>
        <time>2018-05-01T10:37:11Z</time>
      </trkpt>
      <trkpt lat="48.01403" lon="6.94508">
        <ele>772.08477783203</ele>
        <time>2018-05-01T10:37:13Z</time>
      </trkpt>
      <trkpt lat="48.01385" lon="6.94507">
        <ele>772.80047607422</ele>
        <time>2018-05-01T10:37:14Z</time>
      </trkpt>
      <trkpt lat="48.01367" lon="6.94508">
        <ele>775.66851806641</ele>
        <time>2018-05-01T10:37:19Z</time>
      </trkpt>
      <trkpt lat="48.01347" lon="6.94512">
        <ele>777.27386474609</ele>
        <time>2018-05-01T10:37:24Z</time>
      </trkpt>
      <trkpt lat="48.0133" lon="6.94508">
        <ele>777.76177978516</ele>
        <time>2018-05-01T10:37:29Z</time>
      </trkpt>
      <trkpt lat="48.01305" lon="6.94484">
        <ele>777.82580566406</ele>
        <time>2018-05-01T10:37:34Z</time>
      </trkpt>
      <trkpt lat="48.01305" lon="6.94484">
        <ele>777.82580566406</ele>
        <time>2018-05-01T10:37:42Z</time>
      </trkpt>
      <trkpt lat="48.01275" lon="6.94466">
        <ele>777.31536865234</ele>
        <time>2018-05-01T10:37:42Z</time>
      </trkpt>
      <trkpt lat="48.0126" lon="6.94445">
        <ele>776.27398681641</ele>
        <time>2018-05-01T10:37:51Z</time>
      </trkpt>
      <trkpt lat="48.01247" lon="6.94419">
        <ele>774.17889404297</ele>
        <time>2018-05-01T10:37:56Z</time>
      </trkpt>
      <trkpt lat="48.01247" lon="6.94419">
        <ele>774.17889404297</ele>
        <time>2018-05-01T10:38:02Z</time>
      </trkpt>
      <trkpt lat="48.01234" lon="6.94393">
        <ele>771.72546386719</ele>
        <time>2018-05-01T10:38:02Z</time>
      </trkpt>
      <trkpt lat="48.01221" lon="6.94374">
        <ele>769.65155029297</ele>
        <time>2018-05-01T10:38:08Z</time>
      </trkpt>
      <trkpt lat="48.01192" lon="6.94334">
        <ele>767.23107910156</ele>
        <time>2018-05-01T10:38:13Z</time>
      </trkpt>
      <trkpt lat="48.01181" lon="6.94328">
        <ele>767.48767089844</ele>
        <time>2018-05-01T10:38:24Z</time>
      </trkpt>
      <trkpt lat="48.0117" lon="6.94324">
        <ele>767.23394775391</ele>
        <time>2018-05-01T10:38:27Z</time>
      </trkpt>
      <trkpt lat="48.01153" lon="6.94324">
        <ele>767.21362304688</ele>
        <time>2018-05-01T10:38:30Z</time>
      </trkpt>
      <trkpt lat="48.01139" lon="6.94321">
        <ele>767.021484375</ele>
        <time>2018-05-01T10:38:35Z</time>
      </trkpt>
      <trkpt lat="48.01125" lon="6.94313">
        <ele>766.91540527344</ele>
        <time>2018-05-01T10:38:39Z</time>
      </trkpt>
      <trkpt lat="48.0111" lon="6.94298">
        <ele>765.93731689453</ele>
        <time>2018-05-01T10:38:43Z</time>
      </trkpt>
      <trkpt lat="48.01097" lon="6.94276">
        <ele>764.759765625</ele>
        <time>2018-05-01T10:38:48Z</time>
      </trkpt>
      <trkpt lat="48.01089" lon="6.94257">
        <ele>762.60284423828</ele>
        <time>2018-05-01T10:38:53Z</time>
      </trkpt>
      <trkpt lat="48.01079" lon="6.9421">
        <ele>759.82415771484</ele>
        <time>2018-05-01T10:38:57Z</time>
      </trkpt>
      <trkpt lat="48.01062" lon="6.9415">
        <ele>755.57995605469</ele>
        <time>2018-05-01T10:39:06Z</time>
      </trkpt>
      <trkpt lat="48.01059" lon="6.94136">
        <ele>754.36328125</ele>
        <time>2018-05-01T10:39:18Z</time>
      </trkpt>
      <trkpt lat="48.01062" lon="6.94111">
        <ele>753.00286865234</ele>
        <time>2018-05-01T10:39:21Z</time>
      </trkpt>
      <trkpt lat="48.01091" lon="6.94045">
        <ele>750.92230224609</ele>
        <time>2018-05-01T10:39:26Z</time>
      </trkpt>
      <trkpt lat="48.01111" lon="6.94">
        <ele>752.37469482422</ele>
        <time>2018-05-01T10:39:40Z</time>
      </trkpt>
      <trkpt lat="48.01096" lon="6.93983">
        <ele>752.16192626953</ele>
        <time>2018-05-01T10:39:50Z</time>
      </trkpt>
      <trkpt lat="48.01034" lon="6.93918">
        <ele>750.76208496094</ele>
        <time>2018-05-01T10:39:55Z</time>
      </trkpt>
      <trkpt lat="48.01004" lon="6.93891">
        <ele>749.57879638672</ele>
        <time>2018-05-01T10:40:15Z</time>
      </trkpt>
      <trkpt lat="48.00977" lon="6.93872">
        <ele>748.04144287109</ele>
        <time>2018-05-01T10:40:24Z</time>
      </trkpt>
      <trkpt lat="48.00862" lon="6.93797">
        <ele>745.05877685547</ele>
        <time>2018-05-01T10:40:32Z</time>
      </trkpt>
      <trkpt lat="48.00829" lon="6.9377">
        <ele>744.83392333984</ele>
        <time>2018-05-01T10:41:06Z</time>
      </trkpt>
      <trkpt lat="48.0078" lon="6.93722">
        <ele>743.37982177734</ele>
        <time>2018-05-01T10:41:16Z</time>
      </trkpt>
      <trkpt lat="48.00763" lon="6.93706">
        <ele>743.240234375</ele>
        <time>2018-05-01T10:41:32Z</time>
      </trkpt>
      <trkpt lat="48.00759" lon="6.93713">
        <ele>742.79510498047</ele>
        <time>2018-05-01T10:41:37Z</time>
      </trkpt>
      <trkpt lat="48.0075" lon="6.93728">
        <ele>742.59161376953</ele>
        <time>2018-05-01T10:41:39Z</time>
      </trkpt>
      <trkpt lat="48.00735" lon="6.9375">
        <ele>741.74267578125</ele>
        <time>2018-05-01T10:41:43Z</time>
      </trkpt>
      <trkpt lat="48.00701" lon="6.93791">
        <ele>742.07104492188</ele>
        <time>2018-05-01T10:41:49Z</time>
      </trkpt>
      <trkpt lat="48.00694" lon="6.93802">
        <ele>741.30480957031</ele>
        <time>2018-05-01T10:42:01Z</time>
      </trkpt>
      <trkpt lat="48.00674" lon="6.9385">
        <ele>740.75408935547</ele>
        <time>2018-05-01T10:42:04Z</time>
      </trkpt>
      <trkpt lat="48.00652" lon="6.93906">
        <ele>741.59680175781</ele>
        <time>2018-05-01T10:42:14Z</time>
      </trkpt>
      <trkpt lat="48.0065" lon="6.93913">
        <ele>741.70416259766</ele>
        <time>2018-05-01T10:42:26Z</time>
      </trkpt>
      <trkpt lat="48.00638" lon="6.93913">
        <ele>741.62426757812</ele>
        <time>2018-05-01T10:42:27Z</time>
      </trkpt>
      <trkpt lat="48.00624" lon="6.93908">
        <ele>742.19494628906</ele>
        <time>2018-05-01T10:42:30Z</time>
      </trkpt>
      <trkpt lat="48.00612" lon="6.93901">
        <ele>742.85437011719</ele>
        <time>2018-05-01T10:42:34Z</time>
      </trkpt>
      <trkpt lat="48.0059" lon="6.93879">
        <ele>743.07403564453</ele>
        <time>2018-05-01T10:42:37Z</time>
      </trkpt>
      <trkpt lat="48.00561" lon="6.93846">
        <ele>742.75946044922</ele>
        <time>2018-05-01T10:42:44Z</time>
      </trkpt>
      <trkpt lat="48.00512" lon="6.93786">
        <ele>744.76049804688</ele>
        <time>2018-05-01T10:42:54Z</time>
      </trkpt>
      <trkpt lat="48.00488" lon="6.93769">
        <ele>745.59851074219</ele>
        <time>2018-05-01T10:43:11Z</time>
      </trkpt>
      <trkpt lat="48.00466" lon="6.9376">
        <ele>744.73114013672</ele>
        <time>2018-05-01T10:43:18Z</time>
      </trkpt>
      <trkpt lat="48.00433" lon="6.93727">
        <ele>742.14306640625</ele>
        <time>2018-05-01T10:43:24Z</time>
      </trkpt>
      <trkpt lat="48.00413" lon="6.93687">
        <ele>741.65185546875</ele>
        <time>2018-05-01T10:43:35Z</time>
      </trkpt>
      <trkpt lat="48.00399" lon="6.93652">
        <ele>741.56536865234</ele>
        <time>2018-05-01T10:43:44Z</time>
      </trkpt>
      <trkpt lat="48.00387" lon="6.93615">
        <ele>741.30676269531</ele>
        <time>2018-05-01T10:43:51Z</time>
      </trkpt>
      <trkpt lat="48.00378" lon="6.93571">
        <ele>742.88616943359</ele>
        <time>2018-05-01T10:43:58Z</time>
      </trkpt>
      <trkpt lat="48.00376" lon="6.93533">
        <ele>742.4658203125</ele>
        <time>2018-05-01T10:44:06Z</time>
      </trkpt>
      <trkpt lat="48.00374" lon="6.9351">
        <ele>741.21166992188</ele>
        <time>2018-05-01T10:44:13Z</time>
      </trkpt>
      <trkpt lat="48.0037" lon="6.93496">
        <ele>740.43804931641</ele>
        <time>2018-05-01T10:44:17Z</time>
      </trkpt>
      <trkpt lat="48.00363" lon="6.9348">
        <ele>740.05993652344</ele>
        <time>2018-05-01T10:44:20Z</time>
      </trkpt>
      <trkpt lat="48.00352" lon="6.93465">
        <ele>740.18853759766</ele>
        <time>2018-05-01T10:44:23Z</time>
      </trkpt>
      <trkpt lat="48.00315" lon="6.93426">
        <ele>742.78155517578</ele>
        <time>2018-05-01T10:44:27Z</time>
      </trkpt>
      <trkpt lat="48.0031" lon="6.93421">
        <ele>743.18273925781</ele>
        <time>2018-05-01T10:44:39Z</time>
      </trkpt>
      <trkpt lat="48.0031" lon="6.93421">
        <ele>743.18273925781</ele>
        <time>2018-05-01T10:44:41Z</time>
      </trkpt>
      <trkpt lat="48.00295" lon="6.93403">
        <ele>743.71282958984</ele>
        <time>2018-05-01T10:44:41Z</time>
      </trkpt>
      <trkpt lat="48.00288" lon="6.93365">
        <ele>741.99945068359</ele>
        <time>2018-05-01T10:44:46Z</time>
      </trkpt>
      <trkpt lat="48.00284" lon="6.93325">
        <ele>741.62054443359</ele>
        <time>2018-05-01T10:44:53Z</time>
      </trkpt>
      <trkpt lat="48.0028" lon="6.93218">
        <ele>737.46435546875</ele>
        <time>2018-05-01T10:45:00Z</time>
      </trkpt>
      <trkpt lat="48.00279" lon="6.93136">
        <ele>733.88134765625</ele>
        <time>2018-05-01T10:45:19Z</time>
      </trkpt>
      <trkpt lat="48.00285" lon="6.93087">
        <ele>731.93579101562</ele>
        <time>2018-05-01T10:45:34Z</time>
      </trkpt>
      <trkpt lat="48.00288" lon="6.9308">
        <ele>731.59118652344</ele>
        <time>2018-05-01T10:45:43Z</time>
      </trkpt>
      <trkpt lat="48.00275" lon="6.93077">
        <ele>732.97344970703</ele>
        <time>2018-05-01T10:45:44Z</time>
      </trkpt>
      <trkpt lat="48.00275" lon="6.93077">
        <ele>732.97344970703</ele>
        <time>2018-05-01T10:45:48Z</time>
      </trkpt>
      <trkpt lat="48.00259" lon="6.93072">
        <ele>735.0009765625</ele>
        <time>2018-05-01T10:45:48Z</time>
      </trkpt>
      <trkpt lat="48.00242" lon="6.93055">
        <ele>737.84820556641</ele>
        <time>2018-05-01T10:45:52Z</time>
      </trkpt>
      <trkpt lat="48.00232" lon="6.93046">
        <ele>739.42883300781</ele>
        <time>2018-05-01T10:45:57Z</time>
      </trkpt>
      <trkpt lat="48.00197" lon="6.9304">
        <ele>741.10247802734</ele>
        <time>2018-05-01T10:46:00Z</time>
      </trkpt>
      <trkpt lat="48.00179" lon="6.93037">
        <ele>740.21716308594</ele>
        <time>2018-05-01T10:46:09Z</time>
      </trkpt>
      <trkpt lat="48.00167" lon="6.93032">
        <ele>739.91119384766</ele>
        <time>2018-05-01T10:46:14Z</time>
      </trkpt>
      <trkpt lat="48.00153" lon="6.9302">
        <ele>739.71368408203</ele>
        <time>2018-05-01T10:46:17Z</time>
      </trkpt>
      <trkpt lat="48.00153" lon="6.9302">
        <ele>739.71368408203</ele>
        <time>2018-05-01T10:46:21Z</time>
      </trkpt>
      <trkpt lat="48.00138" lon="6.92994">
        <ele>740.82800292969</ele>
        <time>2018-05-01T10:46:21Z</time>
      </trkpt>
      <trkpt lat="48.00129" lon="6.92989">
        <ele>741.45745849609</ele>
        <time>2018-05-01T10:46:27Z</time>
      </trkpt>
      <trkpt lat="48.00096" lon="6.92932">
        <ele>743.58654785156</ele>
        <time>2018-05-01T10:46:30Z</time>
      </trkpt>
      <trkpt lat="48.00032" lon="6.92823">
        <ele>754.27728271484</ele>
        <time>2018-05-01T10:46:43Z</time>
      </trkpt>
      <trkpt lat="48.00022" lon="6.92792">
        <ele>756.60766601562</ele>
        <time>2018-05-01T10:47:09Z</time>
      </trkpt>
      <trkpt lat="48.00013" lon="6.92782">
        <ele>757.92700195312</ele>
        <time>2018-05-01T10:47:15Z</time>
      </trkpt>
      <trkpt lat="48.00004" lon="6.92763">
        <ele>759.03930664062</ele>
        <time>2018-05-01T10:47:18Z</time>
      </trkpt>
      <trkpt lat="47.9997" lon="6.92704">
        <ele>768.56896972656</ele>
        <time>2018-05-01T10:47:22Z</time>
      </trkpt>
      <trkpt lat="47.99926" lon="6.92644">
        <ele>774.8486328125</ele>
        <time>2018-05-01T10:47:36Z</time>
      </trkpt>
      <trkpt lat="47.99884" lon="6.92578">
        <ele>777.46630859375</ele>
        <time>2018-05-01T10:47:52Z</time>
      </trkpt>
      <trkpt lat="47.99865" lon="6.92548">
        <ele>782.19567871094</ele>
        <time>2018-05-01T10:48:08Z</time>
      </trkpt>
      <trkpt lat="47.99838" lon="6.92517">
        <ele>785.44903564453</ele>
        <time>2018-05-01T10:48:15Z</time>
      </trkpt>
      <trkpt lat="47.99785" lon="6.92441">
        <ele>788.62554931641</ele>
        <time>2018-05-01T10:48:24Z</time>
      </trkpt>
      <trkpt lat="47.99774" lon="6.92428">
        <ele>790.15386962891</ele>
        <time>2018-05-01T10:48:44Z</time>
      </trkpt>
      <trkpt lat="47.99764" lon="6.9242">
        <ele>791.87072753906</ele>
        <time>2018-05-01T10:48:48Z</time>
      </trkpt>
      <trkpt lat="47.99752" lon="6.92418">
        <ele>794.75964355469</ele>
        <time>2018-05-01T10:48:51Z</time>
      </trkpt>
      <trkpt lat="47.99742" lon="6.92411">
        <ele>801.27801513672</ele>
        <time>2018-05-01T10:48:54Z</time>
      </trkpt>
      <trkpt lat="47.99737" lon="6.92405">
        <ele>804.17041015625</ele>
        <time>2018-05-01T10:48:57Z</time>
      </trkpt>
      <trkpt lat="47.99734" lon="6.92395">
        <ele>804.10705566406</ele>
        <time>2018-05-01T10:48:59Z</time>
      </trkpt>
      <trkpt lat="47.99734" lon="6.92357">
        <ele>802.05334472656</ele>
        <time>2018-05-01T10:49:01Z</time>
      </trkpt>
      <trkpt lat="47.99734" lon="6.92317">
        <ele>806.31237792969</ele>
        <time>2018-05-01T10:49:08Z</time>
      </trkpt>
      <trkpt lat="47.99723" lon="6.92256">
        <ele>807.99609375</ele>
        <time>2018-05-01T10:49:15Z</time>
      </trkpt>
      <trkpt lat="47.99716" lon="6.92229">
        <ele>808.24792480469</ele>
        <time>2018-05-01T10:49:26Z</time>
      </trkpt>
      <trkpt lat="47.99702" lon="6.92203">
        <ele>810.02856445312</ele>
        <time>2018-05-01T10:49:31Z</time>
      </trkpt>
      <trkpt lat="47.9969" lon="6.92176">
        <ele>808.30224609375</ele>
        <time>2018-05-01T10:49:37Z</time>
      </trkpt>
      <trkpt lat="47.99678" lon="6.92157">
        <ele>811.58856201172</ele>
        <time>2018-05-01T10:49:43Z</time>
      </trkpt>
      <trkpt lat="47.99642" lon="6.9211">
        <ele>822.89990234375</ele>
        <time>2018-05-01T10:49:48Z</time>
      </trkpt>
      <trkpt lat="47.99592" lon="6.92049">
        <ele>829.67980957031</ele>
        <time>2018-05-01T10:50:01Z</time>
      </trkpt>
      <trkpt lat="47.99553" lon="6.92005">
        <ele>824.36053466797</ele>
        <time>2018-05-01T10:50:18Z</time>
      </trkpt>
      <trkpt lat="47.99525" lon="6.91979">
        <ele>827.81781005859</ele>
        <time>2018-05-01T10:50:31Z</time>
      </trkpt>
      <trkpt lat="47.99502" lon="6.91966">
        <ele>831.99829101562</ele>
        <time>2018-05-01T10:50:40Z</time>
      </trkpt>
      <trkpt lat="47.99461" lon="6.91949">
        <ele>841.83361816406</ele>
        <time>2018-05-01T10:50:47Z</time>
      </trkpt>
      <trkpt lat="47.9944" lon="6.9194">
        <ele>846.64361572266</ele>
        <time>2018-05-01T10:50:58Z</time>
      </trkpt>
      <trkpt lat="47.9944" lon="6.9194">
        <ele>846.64361572266</ele>
        <time>2018-05-01T10:51:04Z</time>
      </trkpt>
      <trkpt lat="47.99404" lon="6.91923">
        <ele>852.25695800781</ele>
        <time>2018-05-01T10:51:04Z</time>
      </trkpt>
      <trkpt lat="47.9939" lon="6.91912">
        <ele>850.03253173828</ele>
        <time>2018-05-01T10:51:14Z</time>
      </trkpt>
      <trkpt lat="47.99356" lon="6.91877">
        <ele>857.16833496094</ele>
        <time>2018-05-01T10:51:18Z</time>
      </trkpt>
      <trkpt lat="47.99319" lon="6.91832">
        <ele>859.68975830078</ele>
        <time>2018-05-01T10:51:29Z</time>
      </trkpt>
      <trkpt lat="47.99297" lon="6.91803">
        <ele>859.83013916016</ele>
        <time>2018-05-01T10:51:42Z</time>
      </trkpt>
      <trkpt lat="47.99283" lon="6.9178">
        <ele>856.34051513672</ele>
        <time>2018-05-01T10:51:50Z</time>
      </trkpt>
      <trkpt lat="47.99272" lon="6.91768">
        <ele>855.14910888672</ele>
        <time>2018-05-01T10:51:56Z</time>
      </trkpt>
      <trkpt lat="47.99259" lon="6.91766">
        <ele>860.60119628906</ele>
        <time>2018-05-01T10:52:00Z</time>
      </trkpt>
      <trkpt lat="47.99224" lon="6.91773">
        <ele>868.90356445312</ele>
        <time>2018-05-01T10:52:03Z</time>
      </trkpt>
      <trkpt lat="47.99206" lon="6.91778">
        <ele>867.22857666016</ele>
        <time>2018-05-01T10:52:12Z</time>
      </trkpt>
      <trkpt lat="47.99191" lon="6.91785">
        <ele>862.96154785156</ele>
        <time>2018-05-01T10:52:17Z</time>
      </trkpt>
      <trkpt lat="47.99165" lon="6.9181">
        <ele>874.00732421875</ele>
        <time>2018-05-01T10:52:21Z</time>
      </trkpt>
      <trkpt lat="47.9915" lon="6.91821">
        <ele>874.60650634766</ele>
        <time>2018-05-01T10:52:29Z</time>
      </trkpt>
      <trkpt lat="47.99137" lon="6.91825">
        <ele>869.54711914062</ele>
        <time>2018-05-01T10:52:33Z</time>
      </trkpt>
      <trkpt lat="47.991" lon="6.91819">
        <ele>872.33276367188</ele>
        <time>2018-05-01T10:52:37Z</time>
      </trkpt>
      <trkpt lat="47.99086" lon="6.91817">
        <ele>871.16186523438</ele>
        <time>2018-05-01T10:52:47Z</time>
      </trkpt>
      <trkpt lat="47.99062" lon="6.9182">
        <ele>874.16778564453</ele>
        <time>2018-05-01T10:52:51Z</time>
      </trkpt>
      <trkpt lat="47.99049" lon="6.9182">
        <ele>876.45178222656</ele>
        <time>2018-05-01T10:52:57Z</time>
      </trkpt>
      <trkpt lat="47.99038" lon="6.91817">
        <ele>881.49066162109</ele>
        <time>2018-05-01T10:53:00Z</time>
      </trkpt>
      <trkpt lat="47.99024" lon="6.91798">
        <ele>881.47747802734</ele>
        <time>2018-05-01T10:53:03Z</time>
      </trkpt>
      <trkpt lat="47.99016" lon="6.91783">
        <ele>880.7509765625</ele>
        <time>2018-05-01T10:53:08Z</time>
      </trkpt>
      <trkpt lat="47.99016" lon="6.91783">
        <ele>880.7509765625</ele>
        <time>2018-05-01T10:53:11Z</time>
      </trkpt>
      <trkpt lat="47.9901" lon="6.91763">
        <ele>881.80053710938</ele>
        <time>2018-05-01T10:53:11Z</time>
      </trkpt>
      <trkpt lat="47.9901" lon="6.9173">
        <ele>885.50311279297</ele>
        <time>2018-05-01T10:53:15Z</time>
      </trkpt>
      <trkpt lat="47.99014" lon="6.91713">
        <ele>888.87945556641</ele>
        <time>2018-05-01T10:53:21Z</time>
      </trkpt>
      <trkpt lat="47.99019" lon="6.91704">
        <ele>887.77105712891</ele>
        <time>2018-05-01T10:53:24Z</time>
      </trkpt>
      <trkpt lat="47.99033" lon="6.91685">
        <ele>885.82269287109</ele>
        <time>2018-05-01T10:53:26Z</time>
      </trkpt>
      <trkpt lat="47.99049" lon="6.91673">
        <ele>887.60522460938</ele>
        <time>2018-05-01T10:53:31Z</time>
      </trkpt>
      <trkpt lat="47.99091" lon="6.91669">
        <ele>880.73718261719</ele>
        <time>2018-05-01T10:53:36Z</time>
      </trkpt>
      <trkpt lat="47.99161" lon="6.91667">
        <ele>886.158203125</ele>
        <time>2018-05-01T10:53:47Z</time>
      </trkpt>
      <trkpt lat="47.9918" lon="6.91662">
        <ele>890.26776123047</ele>
        <time>2018-05-01T10:54:06Z</time>
      </trkpt>
      <trkpt lat="47.99198" lon="6.91653">
        <ele>892.42004394531</ele>
        <time>2018-05-01T10:54:11Z</time>
      </trkpt>
      <trkpt lat="47.99205" lon="6.91648">
        <ele>893.39404296875</ele>
        <time>2018-05-01T10:54:16Z</time>
      </trkpt>
      <trkpt lat="47.99219" lon="6.91626">
        <ele>898.29791259766</ele>
        <time>2018-05-01T10:54:18Z</time>
      </trkpt>
      <trkpt lat="47.9923" lon="6.91608">
        <ele>901.84521484375</ele>
        <time>2018-05-01T10:54:23Z</time>
      </trkpt>
      <trkpt lat="47.99241" lon="6.9158">
        <ele>906.3037109375</ele>
        <time>2018-05-01T10:54:27Z</time>
      </trkpt>
      <trkpt lat="47.99248" lon="6.91516">
        <ele>912.57214355469</ele>
        <time>2018-05-01T10:54:33Z</time>
      </trkpt>
      <trkpt lat="47.99248" lon="6.91488">
        <ele>915.21801757812</ele>
        <time>2018-05-01T10:54:45Z</time>
      </trkpt>
      <trkpt lat="47.9925" lon="6.9146">
        <ele>912.72045898438</ele>
        <time>2018-05-01T10:54:50Z</time>
      </trkpt>
      <trkpt lat="47.99254" lon="6.9144">
        <ele>913.32873535156</ele>
        <time>2018-05-01T10:54:55Z</time>
      </trkpt>
      <trkpt lat="47.99258" lon="6.9142">
        <ele>914.95074462891</ele>
        <time>2018-05-01T10:54:59Z</time>
      </trkpt>
      <trkpt lat="47.99265" lon="6.91398">
        <ele>915.97143554688</ele>
        <time>2018-05-01T10:55:03Z</time>
      </trkpt>
      <trkpt lat="47.99274" lon="6.91382">
        <ele>913.70428466797</ele>
        <time>2018-05-01T10:55:07Z</time>
      </trkpt>
      <trkpt lat="47.99295" lon="6.91361">
        <ele>909.72149658203</ele>
        <time>2018-05-01T10:55:11Z</time>
      </trkpt>
      <trkpt lat="47.99314" lon="6.91341">
        <ele>909.04016113281</ele>
        <time>2018-05-01T10:55:18Z</time>
      </trkpt>
      <trkpt lat="47.99319" lon="6.91328">
        <ele>911.51513671875</ele>
        <time>2018-05-01T10:55:24Z</time>
      </trkpt>
      <trkpt lat="47.99322" lon="6.91312">
        <ele>913.92456054688</ele>
        <time>2018-05-01T10:55:27Z</time>
      </trkpt>
      <trkpt lat="47.99323" lon="6.91295">
        <ele>916.47521972656</ele>
        <time>2018-05-01T10:55:30Z</time>
      </trkpt>
      <trkpt lat="47.99326" lon="6.91281">
        <ele>916.75799560547</ele>
        <time>2018-05-01T10:55:33Z</time>
      </trkpt>
      <trkpt lat="47.99348" lon="6.91241">
        <ele>915.55694580078</ele>
        <time>2018-05-01T10:55:36Z</time>
      </trkpt>
      <trkpt lat="47.99393" lon="6.91199">
        <ele>910.84704589844</ele>
        <time>2018-05-01T10:55:45Z</time>
      </trkpt>
      <trkpt lat="47.99407" lon="6.91192">
        <ele>913.2900390625</ele>
        <time>2018-05-01T10:55:59Z</time>
      </trkpt>
      <trkpt lat="47.99421" lon="6.9119">
        <ele>912.89923095703</ele>
        <time>2018-05-01T10:56:03Z</time>
      </trkpt>
      <trkpt lat="47.99434" lon="6.91193">
        <ele>909.06701660156</ele>
        <time>2018-05-01T10:56:07Z</time>
      </trkpt>
      <trkpt lat="47.99538" lon="6.91241">
        <ele>906.77862548828</ele>
        <time>2018-05-01T10:56:11Z</time>
      </trkpt>
      <trkpt lat="47.99616" lon="6.91292">
        <ele>893.2744140625</ele>
        <time>2018-05-01T10:56:40Z</time>
      </trkpt>
      <trkpt lat="47.99635" lon="6.91301">
        <ele>892.23541259766</ele>
        <time>2018-05-01T10:57:03Z</time>
      </trkpt>
      <trkpt lat="47.9965" lon="6.91303">
        <ele>894.42651367188</ele>
        <time>2018-05-01T10:57:08Z</time>
      </trkpt>
      <trkpt lat="47.9966" lon="6.91303">
        <ele>897.21203613281</ele>
        <time>2018-05-01T10:57:12Z</time>
      </trkpt>
      <trkpt lat="47.99667" lon="6.913">
        <ele>899.69689941406</ele>
        <time>2018-05-01T10:57:15Z</time>
      </trkpt>
      <trkpt lat="47.99674" lon="6.91293">
        <ele>902.28192138672</ele>
        <time>2018-05-01T10:57:17Z</time>
      </trkpt>
      <trkpt lat="47.9968" lon="6.91275">
        <ele>908.25213623047</ele>
        <time>2018-05-01T10:57:19Z</time>
      </trkpt>
      <trkpt lat="47.99693" lon="6.91222">
        <ele>916.37713623047</ele>
        <time>2018-05-01T10:57:23Z</time>
      </trkpt>
      <trkpt lat="47.99712" lon="6.91165">
        <ele>910.96844482422</ele>
        <time>2018-05-01T10:57:33Z</time>
      </trkpt>
      <trkpt lat="47.99725" lon="6.91146">
        <ele>905.31213378906</ele>
        <time>2018-05-01T10:57:44Z</time>
      </trkpt>
      <trkpt lat="47.99756" lon="6.91125">
        <ele>898.08087158203</ele>
        <time>2018-05-01T10:57:49Z</time>
      </trkpt>
      <trkpt lat="47.99762" lon="6.91119">
        <ele>896.9560546875</ele>
        <time>2018-05-01T10:57:58Z</time>
      </trkpt>
      <trkpt lat="47.99764" lon="6.91111">
        <ele>896.61083984375</ele>
        <time>2018-05-01T10:58:00Z</time>
      </trkpt>
      <trkpt lat="47.99762" lon="6.911">
        <ele>896.94970703125</ele>
        <time>2018-05-01T10:58:02Z</time>
      </trkpt>
      <trkpt lat="47.99756" lon="6.91092">
        <ele>897.96997070312</ele>
        <time>2018-05-01T10:58:04Z</time>
      </trkpt>
      <trkpt lat="47.99749" lon="6.91076">
        <ele>899.14569091797</ele>
        <time>2018-05-01T10:58:06Z</time>
      </trkpt>
      <trkpt lat="47.9974" lon="6.91039">
        <ele>901.16217041016</ele>
        <time>2018-05-01T10:58:09Z</time>
      </trkpt>
      <trkpt lat="47.99734" lon="6.91021">
        <ele>903.27514648438</ele>
        <time>2018-05-01T10:58:16Z</time>
      </trkpt>
      <trkpt lat="47.99727" lon="6.9101">
        <ele>903.46636962891</ele>
        <time>2018-05-01T10:58:20Z</time>
      </trkpt>
      <trkpt lat="47.9972" lon="6.91002">
        <ele>902.6826171875</ele>
        <time>2018-05-01T10:58:23Z</time>
      </trkpt>
      <trkpt lat="47.99704" lon="6.90995">
        <ele>904.43322753906</ele>
        <time>2018-05-01T10:58:25Z</time>
      </trkpt>
      <trkpt lat="47.99636" lon="6.90983">
        <ele>900.46112060547</ele>
        <time>2018-05-01T10:58:29Z</time>
      </trkpt>
      <trkpt lat="47.99549" lon="6.90966">
        <ele>896.86401367188</ele>
        <time>2018-05-01T10:58:47Z</time>
      </trkpt>
      <trkpt lat="47.99493" lon="6.90955">
        <ele>894.43902587891</ele>
        <time>2018-05-01T10:59:10Z</time>
      </trkpt>
      <trkpt lat="47.99473" lon="6.90943">
        <ele>900.58502197266</ele>
        <time>2018-05-01T10:59:25Z</time>
      </trkpt>
      <trkpt lat="47.99462" lon="6.90931">
        <ele>902.88232421875</ele>
        <time>2018-05-01T10:59:31Z</time>
      </trkpt>
      <trkpt lat="47.99441" lon="6.909">
        <ele>901.40728759766</ele>
        <time>2018-05-01T10:59:35Z</time>
      </trkpt>
      <trkpt lat="47.99407" lon="6.90845">
        <ele>903.20190429688</ele>
        <time>2018-05-01T10:59:43Z</time>
      </trkpt>
      <trkpt lat="47.99399" lon="6.90824">
        <ele>903.08538818359</ele>
        <time>2018-05-01T10:59:56Z</time>
      </trkpt>
      <trkpt lat="47.99395" lon="6.908">
        <ele>901.19348144531</ele>
        <time>2018-05-01T11:00:00Z</time>
      </trkpt>
      <trkpt lat="47.99389" lon="6.9078">
        <ele>899.84899902344</ele>
        <time>2018-05-01T11:00:04Z</time>
      </trkpt>
      <trkpt lat="47.99379" lon="6.90764">
        <ele>899.69555664062</ele>
        <time>2018-05-01T11:00:08Z</time>
      </trkpt>
      <trkpt lat="47.99371" lon="6.90757">
        <ele>900.22467041016</ele>
        <time>2018-05-01T11:00:12Z</time>
      </trkpt>
      <trkpt lat="47.99365" lon="6.90746">
        <ele>898.89624023438</ele>
        <time>2018-05-01T11:00:14Z</time>
      </trkpt>
      <trkpt lat="47.99361" lon="6.90734">
        <ele>897.86926269531</ele>
        <time>2018-05-01T11:00:17Z</time>
      </trkpt>
      <trkpt lat="47.99349" lon="6.90686">
        <ele>894.17828369141</ele>
        <time>2018-05-01T11:00:19Z</time>
      </trkpt>
      <trkpt lat="47.99349" lon="6.90686">
        <ele>894.17828369141</ele>
        <time>2018-05-01T11:00:28Z</time>
      </trkpt>
      <trkpt lat="47.99344" lon="6.90646">
        <ele>888.35345458984</ele>
        <time>2018-05-01T11:00:28Z</time>
      </trkpt>
      <trkpt lat="47.99346" lon="6.90625">
        <ele>887.31518554688</ele>
        <time>2018-05-01T11:00:35Z</time>
      </trkpt>
      <trkpt lat="47.99335" lon="6.90625">
        <ele>887.56292724609</ele>
        <time>2018-05-01T11:00:39Z</time>
      </trkpt>
      <trkpt lat="47.99315" lon="6.90635">
        <ele>891.48083496094</ele>
        <time>2018-05-01T11:00:42Z</time>
      </trkpt>
      <trkpt lat="47.99304" lon="6.90645">
        <ele>894.96978759766</ele>
        <time>2018-05-01T11:00:48Z</time>
      </trkpt>
      <trkpt lat="47.99291" lon="6.90661">
        <ele>898.97235107422</ele>
        <time>2018-05-01T11:00:51Z</time>
      </trkpt>
      <trkpt lat="47.99287" lon="6.90671">
        <ele>900.79211425781</ele>
        <time>2018-05-01T11:00:55Z</time>
      </trkpt>
      <trkpt lat="47.99287" lon="6.90683">
        <ele>902.56365966797</ele>
        <time>2018-05-01T11:00:57Z</time>
      </trkpt>
      <trkpt lat="47.99298" lon="6.90721">
        <ele>906.81304931641</ele>
        <time>2018-05-01T11:00:59Z</time>
      </trkpt>
      <trkpt lat="47.99304" lon="6.90751">
        <ele>910.31195068359</ele>
        <time>2018-05-01T11:01:06Z</time>
      </trkpt>
      <trkpt lat="47.99308" lon="6.90782">
        <ele>912.72833251953</ele>
        <time>2018-05-01T11:01:12Z</time>
      </trkpt>
      <trkpt lat="47.99325" lon="6.90848">
        <ele>917.05755615234</ele>
        <time>2018-05-01T11:01:18Z</time>
      </trkpt>
      <trkpt lat="47.99334" lon="6.90879">
        <ele>921.23199462891</ele>
        <time>2018-05-01T11:01:31Z</time>
      </trkpt>
      <trkpt lat="47.9937" lon="6.90963">
        <ele>927.86743164062</ele>
        <time>2018-05-01T11:01:37Z</time>
      </trkpt>
      <trkpt lat="47.99392" lon="6.91021">
        <ele>927.60693359375</ele>
        <time>2018-05-01T11:01:55Z</time>
      </trkpt>
      <trkpt lat="47.99406" lon="6.91044">
        <ele>926.38885498047</ele>
        <time>2018-05-01T11:02:07Z</time>
      </trkpt>
      <trkpt lat="47.99412" lon="6.91057">
        <ele>926.10656738281</ele>
        <time>2018-05-01T11:02:13Z</time>
      </trkpt>
      <trkpt lat="47.99414" lon="6.91064">
        <ele>926.06695556641</ele>
        <time>2018-05-01T11:02:16Z</time>
      </trkpt>
      <trkpt lat="47.99411" lon="6.9108">
        <ele>927.22308349609</ele>
        <time>2018-05-01T11:02:17Z</time>
      </trkpt>
      <trkpt lat="47.99405" lon="6.91083">
        <ele>928.73199462891</ele>
        <time>2018-05-01T11:02:20Z</time>
      </trkpt>
      <trkpt lat="47.99394" lon="6.91083">
        <ele>930.29022216797</ele>
        <time>2018-05-01T11:02:22Z</time>
      </trkpt>
      <trkpt lat="47.99363" lon="6.91076">
        <ele>935.39770507812</ele>
        <time>2018-05-01T11:02:25Z</time>
      </trkpt>
      <trkpt lat="47.99356" lon="6.91073">
        <ele>935.66754150391</ele>
        <time>2018-05-01T11:02:33Z</time>
      </trkpt>
      <trkpt lat="47.99348" lon="6.91079">
        <ele>937.88482666016</ele>
        <time>2018-05-01T11:02:35Z</time>
      </trkpt>
      <trkpt lat="47.99341" lon="6.91086">
        <ele>939.83001708984</ele>
        <time>2018-05-01T11:02:37Z</time>
      </trkpt>
      <trkpt lat="47.99336" lon="6.91102">
        <ele>941.09234619141</ele>
        <time>2018-05-01T11:02:39Z</time>
      </trkpt>
      <trkpt lat="47.9933" lon="6.91119">
        <ele>942.29138183594</ele>
        <time>2018-05-01T11:02:42Z</time>
      </trkpt>
      <trkpt lat="47.99312" lon="6.9115">
        <ele>948.04357910156</ele>
        <time>2018-05-01T11:02:45Z</time>
      </trkpt>
      <trkpt lat="47.99292" lon="6.91213">
        <ele>950.04046630859</ele>
        <time>2018-05-01T11:02:52Z</time>
      </trkpt>
      <trkpt lat="47.99281" lon="6.91234">
        <ele>949.40295410156</ele>
        <time>2018-05-01T11:03:04Z</time>
      </trkpt>
      <trkpt lat="47.9925" lon="6.91263">
        <ele>953.71697998047</ele>
        <time>2018-05-01T11:03:09Z</time>
      </trkpt>
      <trkpt lat="47.99235" lon="6.91281">
        <ele>956.27410888672</ele>
        <time>2018-05-01T11:03:19Z</time>
      </trkpt>
      <trkpt lat="47.99222" lon="6.91302">
        <ele>964.14959716797</ele>
        <time>2018-05-01T11:03:24Z</time>
      </trkpt>
      <trkpt lat="47.99214" lon="6.91319">
        <ele>964.34283447266</ele>
        <time>2018-05-01T11:03:29Z</time>
      </trkpt>
      <trkpt lat="47.99204" lon="6.91356">
        <ele>963.51336669922</ele>
        <time>2018-05-01T11:03:33Z</time>
      </trkpt>
      <trkpt lat="47.99192" lon="6.91393">
        <ele>963.70166015625</ele>
        <time>2018-05-01T11:03:40Z</time>
      </trkpt>
      <trkpt lat="47.99174" lon="6.91416">
        <ele>968.58038330078</ele>
        <time>2018-05-01T11:03:47Z</time>
      </trkpt>
      <trkpt lat="47.99143" lon="6.91434">
        <ele>973.30041503906</ele>
        <time>2018-05-01T11:03:53Z</time>
      </trkpt>
      <trkpt lat="47.99108" lon="6.91452">
        <ele>970.85949707031</ele>
        <time>2018-05-01T11:04:02Z</time>
      </trkpt>
      <trkpt lat="47.99092" lon="6.91459">
        <ele>969.34448242188</ele>
        <time>2018-05-01T11:04:12Z</time>
      </trkpt>
      <trkpt lat="47.99078" lon="6.9146">
        <ele>967.85168457031</ele>
        <time>2018-05-01T11:04:16Z</time>
      </trkpt>
      <trkpt lat="47.99049" lon="6.91456">
        <ele>969.53948974609</ele>
        <time>2018-05-01T11:04:20Z</time>
      </trkpt>
      <trkpt lat="47.9898" lon="6.91411">
        <ele>982.62658691406</ele>
        <time>2018-05-01T11:04:28Z</time>
      </trkpt>
      <trkpt lat="47.98949" lon="6.91384">
        <ele>991.94134521484</ele>
        <time>2018-05-01T11:04:48Z</time>
      </trkpt>
      <trkpt lat="47.98922" lon="6.91365">
        <ele>995.62921142578</ele>
        <time>2018-05-01T11:04:58Z</time>
      </trkpt>
      <trkpt lat="47.98903" lon="6.91355">
        <ele>998.80480957031</ele>
        <time>2018-05-01T11:05:06Z</time>
      </trkpt>
      <trkpt lat="47.98878" lon="6.91355">
        <ele>998.30187988281</ele>
        <time>2018-05-01T11:05:11Z</time>
      </trkpt>
      <trkpt lat="47.98868" lon="6.9136">
        <ele>995.81079101562</ele>
        <time>2018-05-01T11:05:18Z</time>
      </trkpt>
      <trkpt lat="47.98868" lon="6.9136">
        <ele>995.81079101562</ele>
        <time>2018-05-01T11:05:21Z</time>
      </trkpt>
      <trkpt lat="47.98852" lon="6.91373">
        <ele>1002.1900634766</ele>
        <time>2018-05-01T11:05:21Z</time>
      </trkpt>
      <trkpt lat="47.98829" lon="6.91404">
        <ele>1010.4862670898</ele>
        <time>2018-05-01T11:05:26Z</time>
      </trkpt>
      <trkpt lat="47.98812" lon="6.91432">
        <ele>1013.1033325195</ele>
        <time>2018-05-01T11:05:34Z</time>
      </trkpt>
      <trkpt lat="47.98803" lon="6.91457">
        <ele>1016.4906005859</ele>
        <time>2018-05-01T11:05:41Z</time>
      </trkpt>
      <trkpt lat="47.98794" lon="6.91495">
        <ele>1010.5930786133</ele>
        <time>2018-05-01T11:05:46Z</time>
      </trkpt>
      <trkpt lat="47.98784" lon="6.91555">
        <ele>1016.0114746094</ele>
        <time>2018-05-01T11:05:53Z</time>
      </trkpt>
      <trkpt lat="47.9878" lon="6.91616">
        <ele>1015.4384765625</ele>
        <time>2018-05-01T11:06:04Z</time>
      </trkpt>
      <trkpt lat="47.9878" lon="6.91633">
        <ele>1014.1655273438</ele>
        <time>2018-05-01T11:06:15Z</time>
      </trkpt>
      <trkpt lat="47.98785" lon="6.91662">
        <ele>1017.6915283203</ele>
        <time>2018-05-01T11:06:18Z</time>
      </trkpt>
      <trkpt lat="47.98796" lon="6.91689">
        <ele>1020.0437011719</ele>
        <time>2018-05-01T11:06:23Z</time>
      </trkpt>
      <trkpt lat="47.98807" lon="6.9171">
        <ele>1019.0755615234</ele>
        <time>2018-05-01T11:06:29Z</time>
      </trkpt>
      <trkpt lat="47.98816" lon="6.9174">
        <ele>1019.4719238281</ele>
        <time>2018-05-01T11:06:34Z</time>
      </trkpt>
      <trkpt lat="47.98824" lon="6.9177">
        <ele>1019.5784912109</ele>
        <time>2018-05-01T11:06:40Z</time>
      </trkpt>
      <trkpt lat="47.98827" lon="6.91797">
        <ele>1022.7767333984</ele>
        <time>2018-05-01T11:06:46Z</time>
      </trkpt>
      <trkpt lat="47.98827" lon="6.91844">
        <ele>1035.1307373047</ele>
        <time>2018-05-01T11:06:51Z</time>
      </trkpt>
      <trkpt lat="47.98829" lon="6.91876">
        <ele>1037.2785644531</ele>
        <time>2018-05-01T11:06:59Z</time>
      </trkpt>
      <trkpt lat="47.98833" lon="6.91899">
        <ele>1036.28125</ele>
        <time>2018-05-01T11:07:05Z</time>
      </trkpt>
      <trkpt lat="47.98839" lon="6.91931">
        <ele>1036.8961181641</ele>
        <time>2018-05-01T11:07:09Z</time>
      </trkpt>
      <trkpt lat="47.98846" lon="6.91953">
        <ele>1035.1876220703</ele>
        <time>2018-05-01T11:07:15Z</time>
      </trkpt>
      <trkpt lat="47.98856" lon="6.91988">
        <ele>1033.9759521484</ele>
        <time>2018-05-01T11:07:19Z</time>
      </trkpt>
      <trkpt lat="47.98856" lon="6.92012">
        <ele>1036.7041015625</ele>
        <time>2018-05-01T11:07:26Z</time>
      </trkpt>
      <trkpt lat="47.98855" lon="6.92042">
        <ele>1039.1328125</ele>
        <time>2018-05-01T11:07:30Z</time>
      </trkpt>
      <trkpt lat="47.98861" lon="6.92056">
        <ele>1038.3546142578</ele>
        <time>2018-05-01T11:07:35Z</time>
      </trkpt>
      <trkpt lat="47.9889" lon="6.92088">
        <ele>1033.5004882812</ele>
        <time>2018-05-01T11:07:38Z</time>
      </trkpt>
      <trkpt lat="47.98929" lon="6.92124">
        <ele>1035.6915283203</ele>
        <time>2018-05-01T11:07:48Z</time>
      </trkpt>
      <trkpt lat="47.9896" lon="6.92157">
        <ele>1040.8681640625</ele>
        <time>2018-05-01T11:08:00Z</time>
      </trkpt>
      <trkpt lat="47.98985" lon="6.92181">
        <ele>1043.5594482422</ele>
        <time>2018-05-01T11:08:10Z</time>
      </trkpt>
      <trkpt lat="47.99015" lon="6.922">
        <ele>1045.3809814453</ele>
        <time>2018-05-01T11:08:18Z</time>
      </trkpt>
      <trkpt lat="47.99073" lon="6.92238">
        <ele>1047.7819824219</ele>
        <time>2018-05-01T11:08:27Z</time>
      </trkpt>
      <trkpt lat="47.99091" lon="6.92245">
        <ele>1048.2039794922</ele>
        <time>2018-05-01T11:08:44Z</time>
      </trkpt>
      <trkpt lat="47.99105" lon="6.92254">
        <ele>1049.5699462891</ele>
        <time>2018-05-01T11:08:49Z</time>
      </trkpt>
      <trkpt lat="47.99112" lon="6.92259">
        <ele>1049.3699951172</ele>
        <time>2018-05-01T11:08:53Z</time>
      </trkpt>
      <trkpt lat="47.99112" lon="6.92259">
        <ele>1049.3699951172</ele>
        <time>2018-05-01T11:08:55Z</time>
      </trkpt>
      <trkpt lat="47.99105" lon="6.92254">
        <ele>1049.5699462891</ele>
        <time>2018-05-01T11:08:55Z</time>
      </trkpt>
      <trkpt lat="47.99111" lon="6.92244">
        <ele>1045.3088378906</ele>
        <time>2018-05-01T11:08:57Z</time>
      </trkpt>
      <trkpt lat="47.99117" lon="6.92239">
        <ele>1042.6850585938</ele>
        <time>2018-05-01T11:08:59Z</time>
      </trkpt>
      <trkpt lat="47.99128" lon="6.92236">
        <ele>1039.6236572266</ele>
        <time>2018-05-01T11:09:01Z</time>
      </trkpt>
      <trkpt lat="47.9914" lon="6.92237">
        <ele>1037.3386230469</ele>
        <time>2018-05-01T11:09:04Z</time>
      </trkpt>
      <trkpt lat="47.99152" lon="6.92241">
        <ele>1035.7596435547</ele>
        <time>2018-05-01T11:09:07Z</time>
      </trkpt>
      <trkpt lat="47.99163" lon="6.9225">
        <ele>1035.4350585938</ele>
        <time>2018-05-01T11:09:10Z</time>
      </trkpt>
      <trkpt lat="47.99179" lon="6.92271">
        <ele>1036.9324951172</ele>
        <time>2018-05-01T11:09:13Z</time>
      </trkpt>
      <trkpt lat="47.99189" lon="6.923">
        <ele>1038.4776611328</ele>
        <time>2018-05-01T11:09:19Z</time>
      </trkpt>
      <trkpt lat="47.99195" lon="6.92339">
        <ele>1040.5988769531</ele>
        <time>2018-05-01T11:09:25Z</time>
      </trkpt>
      <trkpt lat="47.99198" lon="6.92372">
        <ele>1042.4235839844</ele>
        <time>2018-05-01T11:09:32Z</time>
      </trkpt>
      <trkpt lat="47.99198" lon="6.92415">
        <ele>1043.1979980469</ele>
        <time>2018-05-01T11:09:38Z</time>
      </trkpt>
      <trkpt lat="47.99194" lon="6.92507">
        <ele>1036.0240478516</ele>
        <time>2018-05-01T11:09:46Z</time>
      </trkpt>
      <trkpt lat="47.99188" lon="6.92536">
        <ele>1036.9338378906</ele>
        <time>2018-05-01T11:10:02Z</time>
      </trkpt>
      <trkpt lat="47.99191" lon="6.92548">
        <ele>1035.5750732422</ele>
        <time>2018-05-01T11:10:07Z</time>
      </trkpt>
      <trkpt lat="47.99198" lon="6.92558">
        <ele>1030.5682373047</ele>
        <time>2018-05-01T11:10:09Z</time>
      </trkpt>
      <trkpt lat="47.99236" lon="6.92596">
        <ele>1019.4683227539</ele>
        <time>2018-05-01T11:10:12Z</time>
      </trkpt>
      <trkpt lat="47.99255" lon="6.92611">
        <ele>1019.5115966797</ele>
        <time>2018-05-01T11:10:24Z</time>
      </trkpt>
      <trkpt lat="47.99275" lon="6.9262">
        <ele>1016.9387817383</ele>
        <time>2018-05-01T11:10:30Z</time>
      </trkpt>
      <trkpt lat="47.99291" lon="6.92638">
        <ele>1015.1173095703</ele>
        <time>2018-05-01T11:10:36Z</time>
      </trkpt>
      <trkpt lat="47.99346" lon="6.92713">
        <ele>1008.8225097656</ele>
        <time>2018-05-01T11:10:41Z</time>
      </trkpt>
      <trkpt lat="47.99375" lon="6.92765">
        <ele>1002.9525756836</ele>
        <time>2018-05-01T11:11:01Z</time>
      </trkpt>
      <trkpt lat="47.99375" lon="6.92765">
        <ele>1002.9525756836</ele>
        <time>2018-05-01T11:11:13Z</time>
      </trkpt>
      <trkpt lat="47.994" lon="6.92821">
        <ele>994.14208984375</ele>
        <time>2018-05-01T11:11:13Z</time>
      </trkpt>
      <trkpt lat="47.99406" lon="6.92849">
        <ele>992.24542236328</ele>
        <time>2018-05-01T11:11:25Z</time>
      </trkpt>
      <trkpt lat="47.99406" lon="6.92864">
        <ele>991.61700439453</ele>
        <time>2018-05-01T11:11:30Z</time>
      </trkpt>
      <trkpt lat="47.99403" lon="6.92886">
        <ele>987.98828125</ele>
        <time>2018-05-01T11:11:33Z</time>
      </trkpt>
      <trkpt lat="47.99396" lon="6.92897">
        <ele>987.88531494141</ele>
        <time>2018-05-01T11:11:37Z</time>
      </trkpt>
      <trkpt lat="47.99387" lon="6.92907">
        <ele>989.19372558594</ele>
        <time>2018-05-01T11:11:40Z</time>
      </trkpt>
      <trkpt lat="47.99368" lon="6.92923">
        <ele>992.32153320312</ele>
        <time>2018-05-01T11:11:43Z</time>
      </trkpt>
      <trkpt lat="47.99344" lon="6.92937">
        <ele>992.30346679688</ele>
        <time>2018-05-01T11:11:49Z</time>
      </trkpt>
      <trkpt lat="47.99329" lon="6.92947">
        <ele>991.33636474609</ele>
        <time>2018-05-01T11:11:56Z</time>
      </trkpt>
      <trkpt lat="47.99315" lon="6.92968">
        <ele>991.41485595703</ele>
        <time>2018-05-01T11:12:00Z</time>
      </trkpt>
      <trkpt lat="47.99306" lon="6.92992">
        <ele>982.72534179688</ele>
        <time>2018-05-01T11:12:05Z</time>
      </trkpt>
      <trkpt lat="47.99302" lon="6.93005">
        <ele>980.71716308594</ele>
        <time>2018-05-01T11:12:10Z</time>
      </trkpt>
      <trkpt lat="47.99301" lon="6.9302">
        <ele>984.22082519531</ele>
        <time>2018-05-01T11:12:13Z</time>
      </trkpt>
      <trkpt lat="47.99303" lon="6.93052">
        <ele>987.83258056641</ele>
        <time>2018-05-01T11:12:16Z</time>
      </trkpt>
      <trkpt lat="47.99304" lon="6.93089">
        <ele>987.72296142578</ele>
        <time>2018-05-01T11:12:22Z</time>
      </trkpt>
      <trkpt lat="47.99297" lon="6.93129">
        <ele>989.76824951172</ele>
        <time>2018-05-01T11:12:29Z</time>
      </trkpt>
      <trkpt lat="47.99296" lon="6.93172">
        <ele>988.55554199219</ele>
        <time>2018-05-01T11:12:36Z</time>
      </trkpt>
      <trkpt lat="47.99293" lon="6.93246">
        <ele>992.41076660156</ele>
        <time>2018-05-01T11:12:44Z</time>
      </trkpt>
      <trkpt lat="47.99295" lon="6.9327">
        <ele>994.82733154297</ele>
        <time>2018-05-01T11:12:57Z</time>
      </trkpt>
      <trkpt lat="47.99304" lon="6.93292">
        <ele>993.22454833984</ele>
        <time>2018-05-01T11:13:01Z</time>
      </trkpt>
      <trkpt lat="47.99312" lon="6.93326">
        <ele>990.20928955078</ele>
        <time>2018-05-01T11:13:06Z</time>
      </trkpt>
      <trkpt lat="47.99313" lon="6.93368">
        <ele>993.05657958984</ele>
        <time>2018-05-01T11:13:12Z</time>
      </trkpt>
      <trkpt lat="47.99329" lon="6.93445">
        <ele>988.73010253906</ele>
        <time>2018-05-01T11:13:20Z</time>
      </trkpt>
      <trkpt lat="47.99345" lon="6.93488">
        <ele>986.65069580078</ele>
        <time>2018-05-01T11:13:34Z</time>
      </trkpt>
      <trkpt lat="47.99349" lon="6.93528">
        <ele>987.54827880859</ele>
        <time>2018-05-01T11:13:43Z</time>
      </trkpt>
      <trkpt lat="47.99351" lon="6.93542">
        <ele>988.61083984375</ele>
        <time>2018-05-01T11:13:50Z</time>
      </trkpt>
      <trkpt lat="47.9936" lon="6.93557">
        <ele>984.09851074219</ele>
        <time>2018-05-01T11:13:53Z</time>
      </trkpt>
      <trkpt lat="47.99381" lon="6.93581">
        <ele>980.98492431641</ele>
        <time>2018-05-01T11:13:57Z</time>
      </trkpt>
      <trkpt lat="47.99405" lon="6.93606">
        <ele>984.34167480469</ele>
        <time>2018-05-01T11:14:04Z</time>
      </trkpt>
      <trkpt lat="47.9942" lon="6.93616">
        <ele>978.88482666016</ele>
        <time>2018-05-01T11:14:12Z</time>
      </trkpt>
      <trkpt lat="47.99427" lon="6.93621">
        <ele>976.60571289062</ele>
        <time>2018-05-01T11:14:16Z</time>
      </trkpt>
      <trkpt lat="47.99458" lon="6.9363">
        <ele>967.81005859375</ele>
        <time>2018-05-01T11:14:18Z</time>
      </trkpt>
      <trkpt lat="47.99532" lon="6.93657">
        <ele>964.1171875</ele>
        <time>2018-05-01T11:14:26Z</time>
      </trkpt>
      <trkpt lat="47.99568" lon="6.93669">
        <ele>957.02551269531</ele>
        <time>2018-05-01T11:14:46Z</time>
      </trkpt>
      <trkpt lat="47.99588" lon="6.93673">
        <ele>954.37225341797</ele>
        <time>2018-05-01T11:14:56Z</time>
      </trkpt>
      <trkpt lat="47.99635" lon="6.9369">
        <ele>955.54821777344</ele>
        <time>2018-05-01T11:15:01Z</time>
      </trkpt>
      <trkpt lat="47.99667" lon="6.93708">
        <ele>958.52307128906</ele>
        <time>2018-05-01T11:15:14Z</time>
      </trkpt>
      <trkpt lat="47.99676" lon="6.93715">
        <ele>959.98547363281</ele>
        <time>2018-05-01T11:15:23Z</time>
      </trkpt>
      <trkpt lat="47.99676" lon="6.93715">
        <ele>959.98547363281</ele>
        <time>2018-05-01T11:15:26Z</time>
      </trkpt>
      <trkpt lat="47.99716" lon="6.93756">
        <ele>956.83428955078</ele>
        <time>2018-05-01T11:15:26Z</time>
      </trkpt>
      <trkpt lat="47.99735" lon="6.93777">
        <ele>954.74261474609</ele>
        <time>2018-05-01T11:15:39Z</time>
      </trkpt>
      <trkpt lat="47.99742" lon="6.9378">
        <ele>947.26147460938</ele>
        <time>2018-05-01T11:15:45Z</time>
      </trkpt>
      <trkpt lat="47.99751" lon="6.9378">
        <ele>939.53979492188</ele>
        <time>2018-05-01T11:15:47Z</time>
      </trkpt>
      <trkpt lat="47.99768" lon="6.93778">
        <ele>939.35479736328</ele>
        <time>2018-05-01T11:15:49Z</time>
      </trkpt>
      <trkpt lat="47.99806" lon="6.93786">
        <ele>934.10235595703</ele>
        <time>2018-05-01T11:15:54Z</time>
      </trkpt>
      <trkpt lat="47.9983" lon="6.93793">
        <ele>931.32916259766</ele>
        <time>2018-05-01T11:16:04Z</time>
      </trkpt>
      <trkpt lat="47.99841" lon="6.93791">
        <ele>932.60809326172</ele>
        <time>2018-05-01T11:16:11Z</time>
      </trkpt>
      <trkpt lat="47.99864" lon="6.93775">
        <ele>929.62139892578</ele>
        <time>2018-05-01T11:16:14Z</time>
      </trkpt>
      <trkpt lat="47.99871" lon="6.93773">
        <ele>928.30224609375</ele>
        <time>2018-05-01T11:16:21Z</time>
      </trkpt>
      <trkpt lat="47.99879" lon="6.93775">
        <ele>929.16741943359</ele>
        <time>2018-05-01T11:16:23Z</time>
      </trkpt>
      <trkpt lat="47.99921" lon="6.93799">
        <ele>930.89581298828</ele>
        <time>2018-05-01T11:16:25Z</time>
      </trkpt>
      <trkpt lat="47.99964" lon="6.93821">
        <ele>918.32983398438</ele>
        <time>2018-05-01T11:16:37Z</time>
      </trkpt>
      <trkpt lat="47.99986" lon="6.93839">
        <ele>919.32916259766</ele>
        <time>2018-05-01T11:16:49Z</time>
      </trkpt>
      <trkpt lat="48.00017" lon="6.93884">
        <ele>923.27087402344</ele>
        <time>2018-05-01T11:16:56Z</time>
      </trkpt>
      <trkpt lat="48.00036" lon="6.93904">
        <ele>921.05603027344</ele>
        <time>2018-05-01T11:17:08Z</time>
      </trkpt>
      <trkpt lat="48.00053" lon="6.93925">
        <ele>918.56701660156</ele>
        <time>2018-05-01T11:17:14Z</time>
      </trkpt>
      <trkpt lat="48.00079" lon="6.93968">
        <ele>916.99853515625</ele>
        <time>2018-05-01T11:17:20Z</time>
      </trkpt>
      <trkpt lat="48.00085" lon="6.9398">
        <ele>915.76794433594</ele>
        <time>2018-05-01T11:17:30Z</time>
      </trkpt>
      <trkpt lat="48.00093" lon="6.94005">
        <ele>916.78747558594</ele>
        <time>2018-05-01T11:17:33Z</time>
      </trkpt>
      <trkpt lat="48.00101" lon="6.94026">
        <ele>914.84069824219</ele>
        <time>2018-05-01T11:17:38Z</time>
      </trkpt>
      <trkpt lat="48.00103" lon="6.94046">
        <ele>913.66973876953</ele>
        <time>2018-05-01T11:17:42Z</time>
      </trkpt>
      <trkpt lat="48.00106" lon="6.94078">
        <ele>918.22747802734</ele>
        <time>2018-05-01T11:17:46Z</time>
      </trkpt>
      <trkpt lat="48.00112" lon="6.94111">
        <ele>921.36669921875</ele>
        <time>2018-05-01T11:17:52Z</time>
      </trkpt>
      <trkpt lat="48.00119" lon="6.94182">
        <ele>932.67584228516</ele>
        <time>2018-05-01T11:17:58Z</time>
      </trkpt>
      <trkpt lat="48.00119" lon="6.94182">
        <ele>932.67584228516</ele>
        <time>2018-05-01T11:18:11Z</time>
      </trkpt>
      <trkpt lat="48.0012" lon="6.94196">
        <ele>934.34558105469</ele>
        <time>2018-05-01T11:18:11Z</time>
      </trkpt>
      <trkpt lat="48.00126" lon="6.94211">
        <ele>933.77972412109</ele>
        <time>2018-05-01T11:18:14Z</time>
      </trkpt>
      <trkpt lat="48.00134" lon="6.94223">
        <ele>932.56286621094</ele>
        <time>2018-05-01T11:18:17Z</time>
      </trkpt>
      <trkpt lat="48.00137" lon="6.94247">
        <ele>936.62152099609</ele>
        <time>2018-05-01T11:18:20Z</time>
      </trkpt>
      <trkpt lat="48.00137" lon="6.94291">
        <ele>940.31170654297</ele>
        <time>2018-05-01T11:18:24Z</time>
      </trkpt>
      <trkpt lat="48.00138" lon="6.94321">
        <ele>941.22448730469</ele>
        <time>2018-05-01T11:18:32Z</time>
      </trkpt>
      <trkpt lat="48.00133" lon="6.94356">
        <ele>941.69775390625</ele>
        <time>2018-05-01T11:18:37Z</time>
      </trkpt>
      <trkpt lat="48.00122" lon="6.94384">
        <ele>945.50872802734</ele>
        <time>2018-05-01T11:18:43Z</time>
      </trkpt>
      <trkpt lat="48.00113" lon="6.94395">
        <ele>949.62072753906</ele>
        <time>2018-05-01T11:18:49Z</time>
      </trkpt>
      <trkpt lat="48.00094" lon="6.94429">
        <ele>956.26171875</ele>
        <time>2018-05-01T11:18:52Z</time>
      </trkpt>
      <trkpt lat="48.00068" lon="6.94495">
        <ele>962.10522460938</ele>
        <time>2018-05-01T11:19:00Z</time>
      </trkpt>
      <trkpt lat="48.00067" lon="6.94507">
        <ele>959.05572509766</ele>
        <time>2018-05-01T11:19:14Z</time>
      </trkpt>
      <trkpt lat="48.00068" lon="6.94518">
        <ele>954.90087890625</ele>
        <time>2018-05-01T11:19:16Z</time>
      </trkpt>
      <trkpt lat="48.00075" lon="6.94541">
        <ele>955.34832763672</ele>
        <time>2018-05-01T11:19:18Z</time>
      </trkpt>
      <trkpt lat="48.00051" lon="6.94546">
        <ele>957.97863769531</ele>
        <time>2018-05-01T11:19:23Z</time>
      </trkpt>
      <trkpt lat="48.00049" lon="6.94511">
        <ele>964.70373535156</ele>
        <time>2018-05-01T11:19:29Z</time>
      </trkpt>
      <trkpt lat="48.00053" lon="6.94474">
        <ele>967.98999023438</ele>
        <time>2018-05-01T11:19:35Z</time>
      </trkpt>
      <trkpt lat="48.00053" lon="6.94468">
        <ele>968.55078125</ele>
        <time>2018-05-01T11:19:42Z</time>
      </trkpt>
      <trkpt lat="48.00053" lon="6.94468">
        <ele>968.55078125</ele>
        <time>2018-05-01T11:19:43Z</time>
      </trkpt>
      <trkpt lat="48.00049" lon="6.94527">
        <ele>962.26068115234</ele>
        <time>2018-05-01T11:19:43Z</time>
      </trkpt>
      <trkpt lat="48.00051" lon="6.94546">
        <ele>957.97863769531</ele>
        <time>2018-05-01T11:19:54Z</time>
      </trkpt>
      <trkpt lat="48.00047" lon="6.94547">
        <ele>957.53955078125</ele>
        <time>2018-05-01T11:19:57Z</time>
      </trkpt>
      <trkpt lat="48.00042" lon="6.9455">
        <ele>956.755859375</ele>
        <time>2018-05-01T11:19:58Z</time>
      </trkpt>
      <trkpt lat="48.0005" lon="6.94566">
        <ele>957.94561767578</ele>
        <time>2018-05-01T11:19:59Z</time>
      </trkpt>
      <trkpt lat="48.00063" lon="6.94574">
        <ele>959.89752197266</ele>
        <time>2018-05-01T11:20:03Z</time>
      </trkpt>
      <trkpt lat="48.00077" lon="6.94584">
        <ele>961.51245117188</ele>
        <time>2018-05-01T11:20:07Z</time>
      </trkpt>
      <trkpt lat="48.0009" lon="6.94606">
        <ele>964.68054199219</ele>
        <time>2018-05-01T11:20:11Z</time>
      </trkpt>
      <trkpt lat="48.00098" lon="6.94614">
        <ele>966.05975341797</ele>
        <time>2018-05-01T11:20:16Z</time>
      </trkpt>
      <trkpt lat="48.00112" lon="6.94624">
        <ele>967.02227783203</ele>
        <time>2018-05-01T11:20:19Z</time>
      </trkpt>
      <trkpt lat="48.00139" lon="6.94637">
        <ele>969.02221679688</ele>
        <time>2018-05-01T11:20:23Z</time>
      </trkpt>
      <trkpt lat="48.00163" lon="6.94647">
        <ele>971.26794433594</ele>
        <time>2018-05-01T11:20:31Z</time>
      </trkpt>
      <trkpt lat="48.00198" lon="6.94648">
        <ele>975.11004638672</ele>
        <time>2018-05-01T11:20:38Z</time>
      </trkpt>
      <trkpt lat="48.0022" lon="6.94652">
        <ele>975.64538574219</ele>
        <time>2018-05-01T11:20:47Z</time>
      </trkpt>
      <trkpt lat="48.00231" lon="6.94659">
        <ele>977.69311523438</ele>
        <time>2018-05-01T11:20:53Z</time>
      </trkpt>
      <trkpt lat="48.00239" lon="6.94669">
        <ele>980.10522460938</ele>
        <time>2018-05-01T11:20:56Z</time>
      </trkpt>
      <trkpt lat="48.00254" lon="6.94682">
        <ele>983.86322021484</ele>
        <time>2018-05-01T11:20:59Z</time>
      </trkpt>
      <trkpt lat="48.00289" lon="6.94694">
        <ele>984.2548828125</ele>
        <time>2018-05-01T11:21:04Z</time>
      </trkpt>
      <trkpt lat="48.00308" lon="6.94701">
        <ele>988.84606933594</ele>
        <time>2018-05-01T11:21:14Z</time>
      </trkpt>
      <trkpt lat="48.00366" lon="6.94712">
        <ele>995.88659667969</ele>
        <time>2018-05-01T11:21:19Z</time>
      </trkpt>
      <trkpt lat="48.00422" lon="6.94731">
        <ele>996.39617919922</ele>
        <time>2018-05-01T11:21:35Z</time>
      </trkpt>
      <trkpt lat="48.00456" lon="6.94743">
        <ele>1002.2353515625</ele>
        <time>2018-05-01T11:21:50Z</time>
      </trkpt>
      <trkpt lat="48.00474" lon="6.94754">
        <ele>1003.6115112305</ele>
        <time>2018-05-01T11:21:59Z</time>
      </trkpt>
      <trkpt lat="48.00488" lon="6.94768">
        <ele>1006.0118408203</ele>
        <time>2018-05-01T11:22:04Z</time>
      </trkpt>
      <trkpt lat="48.00508" lon="6.948">
        <ele>1012.2079467773</ele>
        <time>2018-05-01T11:22:09Z</time>
      </trkpt>
      <trkpt lat="48.00535" lon="6.94836">
        <ele>1017.9580078125</ele>
        <time>2018-05-01T11:22:17Z</time>
      </trkpt>
      <trkpt lat="48.00554" lon="6.94878">
        <ele>1024.5170898438</ele>
        <time>2018-05-01T11:22:27Z</time>
      </trkpt>
      <trkpt lat="48.00583" lon="6.94946">
        <ele>1029.9157714844</ele>
        <time>2018-05-01T11:22:36Z</time>
      </trkpt>
      <trkpt lat="48.00603" lon="6.9498">
        <ele>1032.7963867188</ele>
        <time>2018-05-01T11:22:50Z</time>
      </trkpt>
      <trkpt lat="48.00617" lon="6.95011">
        <ele>1035.8637695312</ele>
        <time>2018-05-01T11:22:58Z</time>
      </trkpt>
      <trkpt lat="48.00632" lon="6.95056">
        <ele>1041.76953125</ele>
        <time>2018-05-01T11:23:05Z</time>
      </trkpt>
      <trkpt lat="48.00642" lon="6.95087">
        <ele>1042.7469482422</ele>
        <time>2018-05-01T11:23:14Z</time>
      </trkpt>
      <trkpt lat="48.00649" lon="6.95102">
        <ele>1043.748046875</ele>
        <time>2018-05-01T11:23:20Z</time>
      </trkpt>
      <trkpt lat="48.00656" lon="6.95109">
        <ele>1043.5690917969</ele>
        <time>2018-05-01T11:23:23Z</time>
      </trkpt>
      <trkpt lat="48.00679" lon="6.95136">
        <ele>1044.3624267578</ele>
        <time>2018-05-01T11:23:25Z</time>
      </trkpt>
      <trkpt lat="48.00693" lon="6.95159">
        <ele>1045.8797607422</ele>
        <time>2018-05-01T11:23:33Z</time>
      </trkpt>
      <trkpt lat="48.00707" lon="6.95192">
        <ele>1047.6962890625</ele>
        <time>2018-05-01T11:23:39Z</time>
      </trkpt>
      <trkpt lat="48.00721" lon="6.95236">
        <ele>1050.3071289062</ele>
        <time>2018-05-01T11:23:46Z</time>
      </trkpt>
      <trkpt lat="48.00726" lon="6.95281">
        <ele>1053.9888916016</ele>
        <time>2018-05-01T11:23:55Z</time>
      </trkpt>
      <trkpt lat="48.00723" lon="6.95322">
        <ele>1058.2060546875</ele>
        <time>2018-05-01T11:24:03Z</time>
      </trkpt>
      <trkpt lat="48.00716" lon="6.95376">
        <ele>1060.73046875</ele>
        <time>2018-05-01T11:24:10Z</time>
      </trkpt>
      <trkpt lat="48.00711" lon="6.954">
        <ele>1059.6547851562</ele>
        <time>2018-05-01T11:24:20Z</time>
      </trkpt>
      <trkpt lat="48.00704" lon="6.95417">
        <ele>1061.9787597656</ele>
        <time>2018-05-01T11:24:24Z</time>
      </trkpt>
      <trkpt lat="48.00678" lon="6.95462">
        <ele>1067.8481445312</ele>
        <time>2018-05-01T11:24:28Z</time>
      </trkpt>
      <trkpt lat="48.00651" lon="6.95511">
        <ele>1070.6638183594</ele>
        <time>2018-05-01T11:24:39Z</time>
      </trkpt>
      <trkpt lat="48.00643" lon="6.95534">
        <ele>1068.474609375</ele>
        <time>2018-05-01T11:24:50Z</time>
      </trkpt>
      <trkpt lat="48.00619" lon="6.95582">
        <ele>1073.2384033203</ele>
        <time>2018-05-01T11:24:55Z</time>
      </trkpt>
      <trkpt lat="48.00606" lon="6.95599">
        <ele>1075.7917480469</ele>
        <time>2018-05-01T11:25:06Z</time>
      </trkpt>
      <trkpt lat="48.00592" lon="6.95615">
        <ele>1078.5076904297</ele>
        <time>2018-05-01T11:25:11Z</time>
      </trkpt>
      <trkpt lat="48.00592" lon="6.95615">
        <ele>1078.5076904297</ele>
        <time>2018-05-01T11:25:16Z</time>
      </trkpt>
      <trkpt lat="48.0056" lon="6.95652">
        <ele>1084.6442871094</ele>
        <time>2018-05-01T11:25:16Z</time>
      </trkpt>
      <trkpt lat="48.00543" lon="6.95676">
        <ele>1087.078125</ele>
        <time>2018-05-01T11:25:27Z</time>
      </trkpt>
      <trkpt lat="48.00534" lon="6.95696">
        <ele>1085.9625244141</ele>
        <time>2018-05-01T11:25:33Z</time>
      </trkpt>
      <trkpt lat="48.0053" lon="6.95704">
        <ele>1085.1875</ele>
        <time>2018-05-01T11:25:37Z</time>
      </trkpt>
      <trkpt lat="48.00521" lon="6.95712">
        <ele>1085.2374267578</ele>
        <time>2018-05-01T11:25:39Z</time>
      </trkpt>
      <trkpt lat="48.00497" lon="6.95729">
        <ele>1084.7139892578</ele>
        <time>2018-05-01T11:25:42Z</time>
      </trkpt>
      <trkpt lat="48.00438" lon="6.95759">
        <ele>1089.0570068359</ele>
        <time>2018-05-01T11:25:49Z</time>
      </trkpt>
      <trkpt lat="48.0037" lon="6.95796">
        <ele>1096.6555175781</ele>
        <time>2018-05-01T11:26:06Z</time>
      </trkpt>
      <trkpt lat="48.0036" lon="6.95803">
        <ele>1097.2694091797</ele>
        <time>2018-05-01T11:26:25Z</time>
      </trkpt>
      <trkpt lat="48.00351" lon="6.95814">
        <ele>1097.4711914062</ele>
        <time>2018-05-01T11:26:28Z</time>
      </trkpt>
      <trkpt lat="48.00318" lon="6.95882">
        <ele>1091.5506591797</ele>
        <time>2018-05-01T11:26:31Z</time>
      </trkpt>
      <trkpt lat="48.0029" lon="6.9596">
        <ele>1092.3153076172</ele>
        <time>2018-05-01T11:26:46Z</time>
      </trkpt>
      <trkpt lat="48.00269" lon="6.96048">
        <ele>1088.7144775391</ele>
        <time>2018-05-01T11:27:02Z</time>
      </trkpt>
      <trkpt lat="48.00253" lon="6.96128">
        <ele>1084.0828857422</ele>
        <time>2018-05-01T11:27:19Z</time>
      </trkpt>
      <trkpt lat="48.00242" lon="6.96219">
        <ele>1074.9731445312</ele>
        <time>2018-05-01T11:27:34Z</time>
      </trkpt>
      <trkpt lat="48.00244" lon="6.96262">
        <ele>1069.4234619141</ele>
        <time>2018-05-01T11:27:51Z</time>
      </trkpt>
      <trkpt lat="48.0025" lon="6.96321">
        <ele>1062.9580078125</ele>
        <time>2018-05-01T11:27:59Z</time>
      </trkpt>
      <trkpt lat="48.00257" lon="6.96362">
        <ele>1057.6840820312</ele>
        <time>2018-05-01T11:28:10Z</time>
      </trkpt>
      <trkpt lat="48.00267" lon="6.96398">
        <ele>1047.3341064453</ele>
        <time>2018-05-01T11:28:18Z</time>
      </trkpt>
      <trkpt lat="48.00278" lon="6.96431">
        <ele>1040.9682617188</ele>
        <time>2018-05-01T11:28:25Z</time>
      </trkpt>
      <trkpt lat="48.00292" lon="6.96461">
        <ele>1034.3547363281</ele>
        <time>2018-05-01T11:28:32Z</time>
      </trkpt>
      <trkpt lat="48.00321" lon="6.96509">
        <ele>1027.1954345703</ele>
        <time>2018-05-01T11:28:39Z</time>
      </trkpt>
      <trkpt lat="48.00344" lon="6.9654">
        <ele>1019.9292602539</ele>
        <time>2018-05-01T11:28:51Z</time>
      </trkpt>
      <trkpt lat="48.00368" lon="6.96566">
        <ele>1016.2763671875</ele>
        <time>2018-05-01T11:28:59Z</time>
      </trkpt>
      <trkpt lat="48.00402" lon="6.9661">
        <ele>1012.8912353516</ele>
        <time>2018-05-01T11:29:07Z</time>
      </trkpt>
      <trkpt lat="48.00422" lon="6.96626">
        <ele>1011.4588623047</ele>
        <time>2018-05-01T11:29:19Z</time>
      </trkpt>
      <trkpt lat="48.00441" lon="6.96636">
        <ele>1012.2764282227</ele>
        <time>2018-05-01T11:29:25Z</time>
      </trkpt>
      <trkpt lat="48.00453" lon="6.96639">
        <ele>1012.2893066406</ele>
        <time>2018-05-01T11:29:30Z</time>
      </trkpt>
      <trkpt lat="48.00453" lon="6.96639">
        <ele>1012.2893066406</ele>
        <time>2018-05-01T11:29:33Z</time>
      </trkpt>
      <trkpt lat="48.00476" lon="6.96637">
        <ele>1008.4061889648</ele>
        <time>2018-05-01T11:29:33Z</time>
      </trkpt>
      <trkpt lat="48.00504" lon="6.9663">
        <ele>1002.5077514648</ele>
        <time>2018-05-01T11:29:39Z</time>
      </trkpt>
      <trkpt lat="48.0052" lon="6.96624">
        <ele>1000.4000854492</ele>
        <time>2018-05-01T11:29:47Z</time>
      </trkpt>
      <trkpt lat="48.00501" lon="6.96621">
        <ele>1000.8919067383</ele>
        <time>2018-05-01T11:29:51Z</time>
      </trkpt>
      <trkpt lat="48.00471" lon="6.96608">
        <ele>1001.8471069336</ele>
        <time>2018-05-01T11:29:56Z</time>
      </trkpt>
      <trkpt lat="48.00451" lon="6.96591">
        <ele>1001.2382202148</ele>
        <time>2018-05-01T11:30:04Z</time>
      </trkpt>
      <trkpt lat="48.0042" lon="6.96553">
        <ele>1000.4896240234</ele>
        <time>2018-05-01T11:30:10Z</time>
      </trkpt>
      <trkpt lat="48.00388" lon="6.96509">
        <ele>1004.1369628906</ele>
        <time>2018-05-01T11:30:21Z</time>
      </trkpt>
      <trkpt lat="48.0036" lon="6.96458">
        <ele>1011.7161254883</ele>
        <time>2018-05-01T11:30:33Z</time>
      </trkpt>
      <trkpt lat="48.00331" lon="6.96393">
        <ele>1016.1347045898</ele>
        <time>2018-05-01T11:30:45Z</time>
      </trkpt>
      <trkpt lat="48.00326" lon="6.96367">
        <ele>1018.8831176758</ele>
        <time>2018-05-01T11:30:59Z</time>
      </trkpt>
      <trkpt lat="48.00324" lon="6.96344">
        <ele>1021.2863769531</ele>
        <time>2018-05-01T11:31:04Z</time>
      </trkpt>
      <trkpt lat="48.00325" lon="6.96323">
        <ele>1021.2208862305</ele>
        <time>2018-05-01T11:31:08Z</time>
      </trkpt>
      <trkpt lat="48.00335" lon="6.96264">
        <ele>1021.0336303711</ele>
        <time>2018-05-01T11:31:12Z</time>
      </trkpt>
      <trkpt lat="48.00364" lon="6.9621">
        <ele>1012.1625366211</ele>
        <time>2018-05-01T11:31:23Z</time>
      </trkpt>
      <trkpt lat="48.00383" lon="6.96184">
        <ele>1015.9410400391</ele>
        <time>2018-05-01T11:31:35Z</time>
      </trkpt>
      <trkpt lat="48.00388" lon="6.96162">
        <ele>1019.3065795898</ele>
        <time>2018-05-01T11:31:42Z</time>
      </trkpt>
      <trkpt lat="48.00396" lon="6.96141">
        <ele>1022.0665283203</ele>
        <time>2018-05-01T11:31:46Z</time>
      </trkpt>
      <trkpt lat="48.00401" lon="6.96135">
        <ele>1022.1321411133</ele>
        <time>2018-05-01T11:31:50Z</time>
      </trkpt>
      <trkpt lat="48.0042" lon="6.96114">
        <ele>1021.94140625</ele>
        <time>2018-05-01T11:31:52Z</time>
      </trkpt>
      <trkpt lat="48.00437" lon="6.961">
        <ele>1023.1227416992</ele>
        <time>2018-05-01T11:31:58Z</time>
      </trkpt>
      <trkpt lat="48.00449" lon="6.96085">
        <ele>1025.1506347656</ele>
        <time>2018-05-01T11:32:03Z</time>
      </trkpt>
      <trkpt lat="48.00457" lon="6.96071">
        <ele>1027.1142578125</ele>
        <time>2018-05-01T11:32:07Z</time>
      </trkpt>
      <trkpt lat="48.00479" lon="6.96047">
        <ele>1029.3427734375</ele>
        <time>2018-05-01T11:32:10Z</time>
      </trkpt>
      <trkpt lat="48.00495" lon="6.96046">
        <ele>1031.4222412109</ele>
        <time>2018-05-01T11:32:17Z</time>
      </trkpt>
      <trkpt lat="48.00513" lon="6.96051">
        <ele>1029.3747558594</ele>
        <time>2018-05-01T11:32:21Z</time>
      </trkpt>
      <trkpt lat="48.00538" lon="6.96056">
        <ele>1026.7749023438</ele>
        <time>2018-05-01T11:32:26Z</time>
      </trkpt>
      <trkpt lat="48.00573" lon="6.9605">
        <ele>1025.1508789062</ele>
        <time>2018-05-01T11:32:33Z</time>
      </trkpt>
      <trkpt lat="48.00598" lon="6.96041">
        <ele>1025.7242431641</ele>
        <time>2018-05-01T11:32:42Z</time>
      </trkpt>
      <trkpt lat="48.00639" lon="6.96029">
        <ele>1023.6677246094</ele>
        <time>2018-05-01T11:32:49Z</time>
      </trkpt>
      <trkpt lat="48.00662" lon="6.96024">
        <ele>1020.3956298828</ele>
        <time>2018-05-01T11:33:00Z</time>
      </trkpt>
      <trkpt lat="48.0068" lon="6.96023">
        <ele>1017.6662597656</ele>
        <time>2018-05-01T11:33:06Z</time>
      </trkpt>
      <trkpt lat="48.00716" lon="6.96021">
        <ele>1012.8884277344</ele>
        <time>2018-05-01T11:33:11Z</time>
      </trkpt>
      <trkpt lat="48.00728" lon="6.96014">
        <ele>1012.2125854492</ele>
        <time>2018-05-01T11:33:21Z</time>
      </trkpt>
      <trkpt lat="48.00752" lon="6.95988">
        <ele>1011.4942016602</ele>
        <time>2018-05-01T11:33:24Z</time>
      </trkpt>
      <trkpt lat="48.00786" lon="6.95956">
        <ele>1005.9564819336</ele>
        <time>2018-05-01T11:33:32Z</time>
      </trkpt>
      <trkpt lat="48.00807" lon="6.95936">
        <ele>998.65972900391</ele>
        <time>2018-05-01T11:33:43Z</time>
      </trkpt>
      <trkpt lat="48.00831" lon="6.95904">
        <ele>997.66680908203</ele>
        <time>2018-05-01T11:33:50Z</time>
      </trkpt>
      <trkpt lat="48.00864" lon="6.95858">
        <ele>996.67218017578</ele>
        <time>2018-05-01T11:33:59Z</time>
      </trkpt>
      <trkpt lat="48.00891" lon="6.95808">
        <ele>994.05139160156</ele>
        <time>2018-05-01T11:34:11Z</time>
      </trkpt>
      <trkpt lat="48.00914" lon="6.95759">
        <ele>990.28967285156</ele>
        <time>2018-05-01T11:34:22Z</time>
      </trkpt>
      <trkpt lat="48.00933" lon="6.95708">
        <ele>986.24822998047</ele>
        <time>2018-05-01T11:34:33Z</time>
      </trkpt>
      <trkpt lat="48.00946" lon="6.95646">
        <ele>982.12902832031</ele>
        <time>2018-05-01T11:34:43Z</time>
      </trkpt>
      <trkpt lat="48.00964" lon="6.95549">
        <ele>978.93481445312</ele>
        <time>2018-05-01T11:34:55Z</time>
      </trkpt>
      <trkpt lat="48.00978" lon="6.95488">
        <ele>970.48187255859</ele>
        <time>2018-05-01T11:35:13Z</time>
      </trkpt>
      <trkpt lat="48.00977" lon="6.95443">
        <ele>969.51788330078</ele>
        <time>2018-05-01T11:35:25Z</time>
      </trkpt>
      <trkpt lat="48.00977" lon="6.95443">
        <ele>969.51788330078</ele>
        <time>2018-05-01T11:35:33Z</time>
      </trkpt>
      <trkpt lat="48.0097" lon="6.95382">
        <ele>968.55895996094</ele>
        <time>2018-05-01T11:35:33Z</time>
      </trkpt>
      <trkpt lat="48.00979" lon="6.95412">
        <ele>967.97930908203</ele>
        <time>2018-05-01T11:35:44Z</time>
      </trkpt>
      <trkpt lat="48.00984" lon="6.95443">
        <ele>966.11383056641</ele>
        <time>2018-05-01T11:35:50Z</time>
      </trkpt>
      <trkpt lat="48.00986" lon="6.95511">
        <ele>968.06469726562</ele>
        <time>2018-05-01T11:35:56Z</time>
      </trkpt>
      <trkpt lat="48.00984" lon="6.95535">
        <ele>969.94451904297</ele>
        <time>2018-05-01T11:36:08Z</time>
      </trkpt>
      <trkpt lat="48.00986" lon="6.95557">
        <ele>972.60424804688</ele>
        <time>2018-05-01T11:36:12Z</time>
      </trkpt>
      <trkpt lat="48.00993" lon="6.95585">
        <ele>973.09973144531</ele>
        <time>2018-05-01T11:36:16Z</time>
      </trkpt>
      <trkpt lat="48.01005" lon="6.95632">
        <ele>969.08557128906</ele>
        <time>2018-05-01T11:36:21Z</time>
      </trkpt>
      <trkpt lat="48.01013" lon="6.95657">
        <ele>969.7275390625</ele>
        <time>2018-05-01T11:36:30Z</time>
      </trkpt>
      <trkpt lat="48.01028" lon="6.95652">
        <ele>969.86376953125</ele>
        <time>2018-05-01T11:36:35Z</time>
      </trkpt>
      <trkpt lat="48.0104" lon="6.95644">
        <ele>970.38128662109</ele>
        <time>2018-05-01T11:36:39Z</time>
      </trkpt>
      <trkpt lat="48.01045" lon="6.95637">
        <ele>970.73895263672</ele>
        <time>2018-05-01T11:36:43Z</time>
      </trkpt>
      <trkpt lat="48.01052" lon="6.95617">
        <ele>972.84942626953</ele>
        <time>2018-05-01T11:36:45Z</time>
      </trkpt>
      <trkpt lat="48.01057" lon="6.95602">
        <ele>975.16107177734</ele>
        <time>2018-05-01T11:36:49Z</time>
      </trkpt>
      <trkpt lat="48.01061" lon="6.9559">
        <ele>975.02166748047</ele>
        <time>2018-05-01T11:36:52Z</time>
      </trkpt>
      <trkpt lat="48.01071" lon="6.95575">
        <ele>975.22430419922</ele>
        <time>2018-05-01T11:36:54Z</time>
      </trkpt>
      <trkpt lat="48.01102" lon="6.95545">
        <ele>976.27294921875</ele>
        <time>2018-05-01T11:36:58Z</time>
      </trkpt>
      <trkpt lat="48.01145" lon="6.95509">
        <ele>978.58422851562</ele>
        <time>2018-05-01T11:37:08Z</time>
      </trkpt>
      <trkpt lat="48.01189" lon="6.9546">
        <ele>981.47033691406</ele>
        <time>2018-05-01T11:37:21Z</time>
      </trkpt>
      <trkpt lat="48.01232" lon="6.95427">
        <ele>978.52355957031</ele>
        <time>2018-05-01T11:37:36Z</time>
      </trkpt>
      <trkpt lat="48.01251" lon="6.95417">
        <ele>979.42651367188</ele>
        <time>2018-05-01T11:37:49Z</time>
      </trkpt>
      <trkpt lat="48.01269" lon="6.95419">
        <ele>982.27661132812</ele>
        <time>2018-05-01T11:37:54Z</time>
      </trkpt>
      <trkpt lat="48.01275" lon="6.95419">
        <ele>983.26867675781</ele>
        <time>2018-05-01T11:37:59Z</time>
      </trkpt>
      <trkpt lat="48.01295" lon="6.95404">
        <ele>982.19323730469</ele>
        <time>2018-05-01T11:38:01Z</time>
      </trkpt>
      <trkpt lat="48.01343" lon="6.95384">
        <ele>983.44287109375</ele>
        <time>2018-05-01T11:38:07Z</time>
      </trkpt>
      <trkpt lat="48.01366" lon="6.95377">
        <ele>983.36041259766</ele>
        <time>2018-05-01T11:38:20Z</time>
      </trkpt>
      <trkpt lat="48.01406" lon="6.95369">
        <ele>983.12780761719</ele>
        <time>2018-05-01T11:38:26Z</time>
      </trkpt>
      <trkpt lat="48.01439" lon="6.95366">
        <ele>987.73004150391</ele>
        <time>2018-05-01T11:38:37Z</time>
      </trkpt>
      <trkpt lat="48.01474" lon="6.95367">
        <ele>991.55554199219</ele>
        <time>2018-05-01T11:38:46Z</time>
      </trkpt>
      <trkpt lat="48.015" lon="6.9537">
        <ele>991.58941650391</ele>
        <time>2018-05-01T11:38:55Z</time>
      </trkpt>
      <trkpt lat="48.01514" lon="6.95371">
        <ele>989.40209960938</ele>
        <time>2018-05-01T11:39:02Z</time>
      </trkpt>
      <trkpt lat="48.01526" lon="6.95374">
        <ele>988.544921875</ele>
        <time>2018-05-01T11:39:06Z</time>
      </trkpt>
      <trkpt lat="48.01545" lon="6.95387">
        <ele>989.95391845703</ele>
        <time>2018-05-01T11:39:09Z</time>
      </trkpt>
      <trkpt lat="48.01562" lon="6.95403">
        <ele>992.39044189453</ele>
        <time>2018-05-01T11:39:15Z</time>
      </trkpt>
      <trkpt lat="48.01575" lon="6.95421">
        <ele>993.69342041016</ele>
        <time>2018-05-01T11:39:20Z</time>
      </trkpt>
      <trkpt lat="48.01604" lon="6.95468">
        <ele>1000.4974365234</ele>
        <time>2018-05-01T11:39:25Z</time>
      </trkpt>
      <trkpt lat="48.01636" lon="6.95572">
        <ele>1009.9513549805</ele>
        <time>2018-05-01T11:39:36Z</time>
      </trkpt>
      <trkpt lat="48.01662" lon="6.95663">
        <ele>1017.0759887695</ele>
        <time>2018-05-01T11:39:56Z</time>
      </trkpt>
      <trkpt lat="48.01688" lon="6.9577">
        <ele>1021.4049682617</ele>
        <time>2018-05-01T11:40:14Z</time>
      </trkpt>
      <trkpt lat="48.01701" lon="6.95853">
        <ele>1024.2395019531</ele>
        <time>2018-05-01T11:40:34Z</time>
      </trkpt>
      <trkpt lat="48.01704" lon="6.95886">
        <ele>1024.5703125</ele>
        <time>2018-05-01T11:40:49Z</time>
      </trkpt>
      <trkpt lat="48.01702" lon="6.95952">
        <ele>1028.4638671875</ele>
        <time>2018-05-01T11:40:55Z</time>
      </trkpt>
      <trkpt lat="48.01692" lon="6.9601">
        <ele>1032.6741943359</ele>
        <time>2018-05-01T11:41:07Z</time>
      </trkpt>
      <trkpt lat="48.0169" lon="6.96047">
        <ele>1030.4261474609</ele>
        <time>2018-05-01T11:41:18Z</time>
      </trkpt>
      <trkpt lat="48.01683" lon="6.96104">
        <ele>1031.6298828125</ele>
        <time>2018-05-01T11:41:25Z</time>
      </trkpt>
      <trkpt lat="48.01684" lon="6.96113">
        <ele>1030.3149414062</ele>
        <time>2018-05-01T11:41:35Z</time>
      </trkpt>
      <trkpt lat="48.01694" lon="6.96126">
        <ele>1021.3220214844</ele>
        <time>2018-05-01T11:41:37Z</time>
      </trkpt>
      <trkpt lat="48.01717" lon="6.96146">
        <ele>1028.5749511719</ele>
        <time>2018-05-01T11:41:41Z</time>
      </trkpt>
      <trkpt lat="48.01729" lon="6.96151">
        <ele>1031.1127929688</ele>
        <time>2018-05-01T11:41:48Z</time>
      </trkpt>
      <trkpt lat="48.01745" lon="6.96152">
        <ele>1032.5718994141</ele>
        <time>2018-05-01T11:41:51Z</time>
      </trkpt>
      <trkpt lat="48.01791" lon="6.96147">
        <ele>1034.5646972656</ele>
        <time>2018-05-01T11:41:55Z</time>
      </trkpt>
      <trkpt lat="48.01889" lon="6.9612">
        <ele>1038.6547851562</ele>
        <time>2018-05-01T11:42:07Z</time>
      </trkpt>
      <trkpt lat="48.01909" lon="6.96114">
        <ele>1038.5291748047</ele>
        <time>2018-05-01T11:42:34Z</time>
      </trkpt>
      <trkpt lat="48.01923" lon="6.96106">
        <ele>1038.021484375</ele>
        <time>2018-05-01T11:42:39Z</time>
      </trkpt>
      <trkpt lat="48.01954" lon="6.96077">
        <ele>1034.5041503906</ele>
        <time>2018-05-01T11:42:43Z</time>
      </trkpt>
      <trkpt lat="48.01967" lon="6.96062">
        <ele>1032.4031982422</ele>
        <time>2018-05-01T11:42:53Z</time>
      </trkpt>
      <trkpt lat="48.01976" lon="6.96054">
        <ele>1031.3588867188</ele>
        <time>2018-05-01T11:42:57Z</time>
      </trkpt>
      <trkpt lat="48.01998" lon="6.96051">
        <ele>1031.9046630859</ele>
        <time>2018-05-01T11:43:00Z</time>
      </trkpt>
      <trkpt lat="48.02025" lon="6.96054">
        <ele>1033.2622070312</ele>
        <time>2018-05-01T11:43:06Z</time>
      </trkpt>
      <trkpt lat="48.02032" lon="6.96057">
        <ele>1033.9327392578</ele>
        <time>2018-05-01T11:43:13Z</time>
      </trkpt>
      <trkpt lat="48.02038" lon="6.96063">
        <ele>1035.0861816406</ele>
        <time>2018-05-01T11:43:15Z</time>
      </trkpt>
      <trkpt lat="48.02045" lon="6.96073">
        <ele>1036.0402832031</ele>
        <time>2018-05-01T11:43:17Z</time>
      </trkpt>
      <trkpt lat="48.02049" lon="6.96091">
        <ele>1037.5762939453</ele>
        <time>2018-05-01T11:43:20Z</time>
      </trkpt>
      <trkpt lat="48.02048" lon="6.96106">
        <ele>1038.8355712891</ele>
        <time>2018-05-01T11:43:23Z</time>
      </trkpt>
      <trkpt lat="48.02026" lon="6.9615">
        <ele>1040.9765625</ele>
        <time>2018-05-01T11:43:26Z</time>
      </trkpt>
      <trkpt lat="48.01998" lon="6.96187">
        <ele>1041.4350585938</ele>
        <time>2018-05-01T11:43:36Z</time>
      </trkpt>
      <trkpt lat="48.01983" lon="6.96205">
        <ele>1042.9353027344</ele>
        <time>2018-05-01T11:43:46Z</time>
      </trkpt>
      <trkpt lat="48.01948" lon="6.96274">
        <ele>1038.8883056641</ele>
        <time>2018-05-01T11:43:51Z</time>
      </trkpt>
      <trkpt lat="48.01897" lon="6.9637">
        <ele>1034.8526611328</ele>
        <time>2018-05-01T11:44:06Z</time>
      </trkpt>
      <trkpt lat="48.01888" lon="6.96383">
        <ele>1034.1494140625</ele>
        <time>2018-05-01T11:44:28Z</time>
      </trkpt>
      <trkpt lat="48.01864" lon="6.964">
        <ele>1037.2487792969</ele>
        <time>2018-05-01T11:44:31Z</time>
      </trkpt>
      <trkpt lat="48.01856" lon="6.96411">
        <ele>1038.3186035156</ele>
        <time>2018-05-01T11:44:38Z</time>
      </trkpt>
      <trkpt lat="48.01853" lon="6.96426">
        <ele>1037.6120605469</ele>
        <time>2018-05-01T11:44:41Z</time>
      </trkpt>
      <trkpt lat="48.01858" lon="6.9645">
        <ele>1033.8530273438</ele>
        <time>2018-05-01T11:44:44Z</time>
      </trkpt>
      <trkpt lat="48.01862" lon="6.96472">
        <ele>1034.7874755859</ele>
        <time>2018-05-01T11:44:48Z</time>
      </trkpt>
      <trkpt lat="48.01862" lon="6.96493">
        <ele>1035.5229492188</ele>
        <time>2018-05-01T11:44:52Z</time>
      </trkpt>
      <trkpt lat="48.01858" lon="6.96524">
        <ele>1035.5684814453</ele>
        <time>2018-05-01T11:44:56Z</time>
      </trkpt>
      <trkpt lat="48.01844" lon="6.96611">
        <ele>1029.3393554688</ele>
        <time>2018-05-01T11:45:02Z</time>
      </trkpt>
      <trkpt lat="48.0182" lon="6.96678">
        <ele>1024.1617431641</ele>
        <time>2018-05-01T11:45:18Z</time>
      </trkpt>
      <trkpt lat="48.01813" lon="6.9669">
        <ele>1021.3119506836</ele>
        <time>2018-05-01T11:45:32Z</time>
      </trkpt>
      <trkpt lat="48.01797" lon="6.96707">
        <ele>1023.2043457031</ele>
        <time>2018-05-01T11:45:35Z</time>
      </trkpt>
      <trkpt lat="48.01784" lon="6.96724">
        <ele>1025.662109375</ele>
        <time>2018-05-01T11:45:40Z</time>
      </trkpt>
      <trkpt lat="48.01775" lon="6.96742">
        <ele>1025.3835449219</ele>
        <time>2018-05-01T11:45:45Z</time>
      </trkpt>
      <trkpt lat="48.01759" lon="6.96781">
        <ele>1021.813293457</ele>
        <time>2018-05-01T11:45:49Z</time>
      </trkpt>
      <trkpt lat="48.01755" lon="6.96826">
        <ele>1017.364074707</ele>
        <time>2018-05-01T11:45:57Z</time>
      </trkpt>
      <trkpt lat="48.01757" lon="6.96918">
        <ele>1011.8790893555</ele>
        <time>2018-05-01T11:46:05Z</time>
      </trkpt>
      <trkpt lat="48.0176" lon="6.96948">
        <ele>1011.5947875977</ele>
        <time>2018-05-01T11:46:21Z</time>
      </trkpt>
      <trkpt lat="48.01768" lon="6.96977">
        <ele>1005.3756103516</ele>
        <time>2018-05-01T11:46:26Z</time>
      </trkpt>
      <trkpt lat="48.0179" lon="6.97029">
        <ele>1001.9228515625</ele>
        <time>2018-05-01T11:46:32Z</time>
      </trkpt>
      <trkpt lat="48.0183" lon="6.97081">
        <ele>995.61975097656</ele>
        <time>2018-05-01T11:46:43Z</time>
      </trkpt>
      <trkpt lat="48.01883" lon="6.97155">
        <ele>982.19012451172</ele>
        <time>2018-05-01T11:46:57Z</time>
      </trkpt>
      <trkpt lat="48.0191" lon="6.9722">
        <ele>980.27020263672</ele>
        <time>2018-05-01T11:47:16Z</time>
      </trkpt>
      <trkpt lat="48.01929" lon="6.97269">
        <ele>979.48840332031</ele>
        <time>2018-05-01T11:47:30Z</time>
      </trkpt>
      <trkpt lat="48.01937" lon="6.9729">
        <ele>982.42700195312</ele>
        <time>2018-05-01T11:47:40Z</time>
      </trkpt>
      <trkpt lat="48.01946" lon="6.97305">
        <ele>981.890625</ele>
        <time>2018-05-01T11:47:44Z</time>
      </trkpt>
      <trkpt lat="48.01951" lon="6.97304">
        <ele>981.2109375</ele>
        <time>2018-05-01T11:47:48Z</time>
      </trkpt>
      <trkpt lat="48.01954" lon="6.97296">
        <ele>979.01062011719</ele>
        <time>2018-05-01T11:47:49Z</time>
      </trkpt>
      <trkpt lat="48.01955" lon="6.97267">
        <ele>977.40252685547</ele>
        <time>2018-05-01T11:47:51Z</time>
      </trkpt>
      <trkpt lat="48.01955" lon="6.97258">
        <ele>975.48022460938</ele>
        <time>2018-05-01T11:47:56Z</time>
      </trkpt>
      <trkpt lat="48.01969" lon="6.97258">
        <ele>976.94580078125</ele>
        <time>2018-05-01T11:47:58Z</time>
      </trkpt>
      <trkpt lat="48.01977" lon="6.9721">
        <ele>976.17639160156</ele>
        <time>2018-05-01T11:48:02Z</time>
      </trkpt>
      <trkpt lat="48.01988" lon="6.9714">
        <ele>974.44738769531</ele>
        <time>2018-05-01T11:48:11Z</time>
      </trkpt>
      <trkpt lat="48.01997" lon="6.97042">
        <ele>967.71087646484</ele>
        <time>2018-05-01T11:48:24Z</time>
      </trkpt>
      <trkpt lat="48.02001" lon="6.9695">
        <ele>958.4482421875</ele>
        <time>2018-05-01T11:48:42Z</time>
      </trkpt>
      <trkpt lat="48.02013" lon="6.96893">
        <ele>954.05603027344</ele>
        <time>2018-05-01T11:48:58Z</time>
      </trkpt>
      <trkpt lat="48.02028" lon="6.96838">
        <ele>949.22601318359</ele>
        <time>2018-05-01T11:49:09Z</time>
      </trkpt>
      <trkpt lat="48.02042" lon="6.96773">
        <ele>940.45184326172</ele>
        <time>2018-05-01T11:49:20Z</time>
      </trkpt>
      <trkpt lat="48.02052" lon="6.96749">
        <ele>936.40887451172</ele>
        <time>2018-05-01T11:49:32Z</time>
      </trkpt>
      <trkpt lat="48.02076" lon="6.96703">
        <ele>929.34381103516</ele>
        <time>2018-05-01T11:49:37Z</time>
      </trkpt>
      <trkpt lat="48.02091" lon="6.96685">
        <ele>927.24890136719</ele>
        <time>2018-05-01T11:49:47Z</time>
      </trkpt>
      <trkpt lat="48.02111" lon="6.96668">
        <ele>926.66088867188</ele>
        <time>2018-05-01T11:49:52Z</time>
      </trkpt>
      <trkpt lat="48.02128" lon="6.96658">
        <ele>926.31085205078</ele>
        <time>2018-05-01T11:49:58Z</time>
      </trkpt>
      <trkpt lat="48.02149" lon="6.96652">
        <ele>926.82489013672</ele>
        <time>2018-05-01T11:50:03Z</time>
      </trkpt>
      <trkpt lat="48.02159" lon="6.96651">
        <ele>925.99658203125</ele>
        <time>2018-05-01T11:50:09Z</time>
      </trkpt>
      <trkpt lat="48.02173" lon="6.96647">
        <ele>923.80993652344</ele>
        <time>2018-05-01T11:50:12Z</time>
      </trkpt>
      <trkpt lat="48.02187" lon="6.9664">
        <ele>920.59887695312</ele>
        <time>2018-05-01T11:50:16Z</time>
      </trkpt>
      <trkpt lat="48.02214" lon="6.96622">
        <ele>910.36120605469</ele>
        <time>2018-05-01T11:50:20Z</time>
      </trkpt>
      <trkpt lat="48.02222" lon="6.96618">
        <ele>911.25390625</ele>
        <time>2018-05-01T11:50:28Z</time>
      </trkpt>
      <trkpt lat="48.02243" lon="6.96612">
        <ele>911.26275634766</ele>
        <time>2018-05-01T11:50:30Z</time>
      </trkpt>
      <trkpt lat="48.02269" lon="6.96599">
        <ele>908.26141357422</ele>
        <time>2018-05-01T11:50:36Z</time>
      </trkpt>
      <trkpt lat="48.02286" lon="6.96584">
        <ele>903.99285888672</ele>
        <time>2018-05-01T11:50:43Z</time>
      </trkpt>
      <trkpt lat="48.02295" lon="6.96577">
        <ele>900.64239501953</ele>
        <time>2018-05-01T11:50:48Z</time>
      </trkpt>
      <trkpt lat="48.02323" lon="6.96569">
        <ele>903.38269042969</ele>
        <time>2018-05-01T11:50:51Z</time>
      </trkpt>
      <trkpt lat="48.02363" lon="6.96542">
        <ele>894.56970214844</ele>
        <time>2018-05-01T11:50:59Z</time>
      </trkpt>
      <trkpt lat="48.02392" lon="6.96514">
        <ele>889.42730712891</ele>
        <time>2018-05-01T11:51:11Z</time>
      </trkpt>
      <trkpt lat="48.02405" lon="6.96491">
        <ele>888.51293945312</ele>
        <time>2018-05-01T11:51:20Z</time>
      </trkpt>
      <trkpt lat="48.02421" lon="6.9645">
        <ele>883.41638183594</ele>
        <time>2018-05-01T11:51:25Z</time>
      </trkpt>
      <trkpt lat="48.02451" lon="6.96402">
        <ele>878.64666748047</ele>
        <time>2018-05-01T11:51:33Z</time>
      </trkpt>
      <trkpt lat="48.02456" lon="6.96391">
        <ele>877.32318115234</ele>
        <time>2018-05-01T11:51:45Z</time>
      </trkpt>
      <trkpt lat="48.02459" lon="6.96367">
        <ele>872.66949462891</ele>
        <time>2018-05-01T11:51:47Z</time>
      </trkpt>
      <trkpt lat="48.02461" lon="6.96336">
        <ele>868.18823242188</ele>
        <time>2018-05-01T11:51:51Z</time>
      </trkpt>
      <trkpt lat="48.02464" lon="6.96326">
        <ele>868.55871582031</ele>
        <time>2018-05-01T11:51:57Z</time>
      </trkpt>
      <trkpt lat="48.02483" lon="6.96292">
        <ele>871.71795654297</ele>
        <time>2018-05-01T11:51:59Z</time>
      </trkpt>
      <trkpt lat="48.02501" lon="6.96266">
        <ele>869.31756591797</ele>
        <time>2018-05-01T11:52:07Z</time>
      </trkpt>
      <trkpt lat="48.02509" lon="6.96226">
        <ele>872.75048828125</ele>
        <time>2018-05-01T11:52:14Z</time>
      </trkpt>
      <trkpt lat="48.0251" lon="6.96202">
        <ele>871.93475341797</ele>
        <time>2018-05-01T11:52:21Z</time>
      </trkpt>
      <trkpt lat="48.02508" lon="6.96167">
        <ele>870.125</ele>
        <time>2018-05-01T11:52:25Z</time>
      </trkpt>
      <trkpt lat="48.02505" lon="6.96151">
        <ele>868.61328125</ele>
        <time>2018-05-01T11:52:31Z</time>
      </trkpt>
      <trkpt lat="48.025" lon="6.96071">
        <ele>859.36779785156</ele>
        <time>2018-05-01T11:52:34Z</time>
      </trkpt>
      <trkpt lat="48.02497" lon="6.96038">
        <ele>855.16192626953</ele>
        <time>2018-05-01T11:52:48Z</time>
      </trkpt>
      <trkpt lat="48.02491" lon="6.95995">
        <ele>845.57672119141</ele>
        <time>2018-05-01T11:52:54Z</time>
      </trkpt>
      <trkpt lat="48.02489" lon="6.95974">
        <ele>840.62689208984</ele>
        <time>2018-05-01T11:53:02Z</time>
      </trkpt>
      <trkpt lat="48.02495" lon="6.95952">
        <ele>838.98278808594</ele>
        <time>2018-05-01T11:53:06Z</time>
      </trkpt>
      <trkpt lat="48.02492" lon="6.9594">
        <ele>838.87622070312</ele>
        <time>2018-05-01T11:53:10Z</time>
      </trkpt>
      <trkpt lat="48.02485" lon="6.95932">
        <ele>838.36920166016</ele>
        <time>2018-05-01T11:53:12Z</time>
      </trkpt>
      <trkpt lat="48.02462" lon="6.95904">
        <ele>836.23596191406</ele>
        <time>2018-05-01T11:53:14Z</time>
      </trkpt>
      <trkpt lat="48.02426" lon="6.95841">
        <ele>836.13720703125</ele>
        <time>2018-05-01T11:53:22Z</time>
      </trkpt>
      <trkpt lat="48.02411" lon="6.95807">
        <ele>830.67218017578</ele>
        <time>2018-05-01T11:53:37Z</time>
      </trkpt>
      <trkpt lat="48.02396" lon="6.95759">
        <ele>831.09332275391</ele>
        <time>2018-05-01T11:53:44Z</time>
      </trkpt>
      <trkpt lat="48.02375" lon="6.95701">
        <ele>827.36273193359</ele>
        <time>2018-05-01T11:53:53Z</time>
      </trkpt>
      <trkpt lat="48.02334" lon="6.956">
        <ele>819.53375244141</ele>
        <time>2018-05-01T11:54:05Z</time>
      </trkpt>
      <trkpt lat="48.02334" lon="6.956">
        <ele>819.53375244141</ele>
        <time>2018-05-01T11:54:26Z</time>
      </trkpt>
      <trkpt lat="48.02325" lon="6.95576">
        <ele>818.251953125</ele>
        <time>2018-05-01T11:54:26Z</time>
      </trkpt>
      <trkpt lat="48.02305" lon="6.95498">
        <ele>818.20471191406</ele>
        <time>2018-05-01T11:54:31Z</time>
      </trkpt>
      <trkpt lat="48.0229" lon="6.95434">
        <ele>812.00512695312</ele>
        <time>2018-05-01T11:54:46Z</time>
      </trkpt>
      <trkpt lat="48.02281" lon="6.95407">
        <ele>811.95135498047</ele>
        <time>2018-05-01T11:54:58Z</time>
      </trkpt>
      <trkpt lat="48.02267" lon="6.95377">
        <ele>809.912109375</ele>
        <time>2018-05-01T11:55:03Z</time>
      </trkpt>
      <trkpt lat="48.02246" lon="6.95347">
        <ele>806.48986816406</ele>
        <time>2018-05-01T11:55:10Z</time>
      </trkpt>
      <trkpt lat="48.02221" lon="6.95319">
        <ele>804.44409179688</ele>
        <time>2018-05-01T11:55:18Z</time>
      </trkpt>
      <trkpt lat="48.02193" lon="6.95288">
        <ele>802.42895507812</ele>
        <time>2018-05-01T11:55:26Z</time>
      </trkpt>
      <trkpt lat="48.02172" lon="6.95254">
        <ele>800.43054199219</ele>
        <time>2018-05-01T11:55:35Z</time>
      </trkpt>
      <trkpt lat="48.02165" lon="6.9524">
        <ele>800.09857177734</ele>
        <time>2018-05-01T11:55:43Z</time>
      </trkpt>
      <trkpt lat="48.02146" lon="6.95225">
        <ele>799.67651367188</ele>
        <time>2018-05-01T11:55:46Z</time>
      </trkpt>
      <trkpt lat="48.02146" lon="6.95225">
        <ele>799.67651367188</ele>
        <time>2018-05-01T11:55:52Z</time>
      </trkpt>
      <trkpt lat="48.02132" lon="6.95208">
        <ele>799.10717773438</ele>
        <time>2018-05-01T11:55:52Z</time>
      </trkpt>
      <trkpt lat="48.02148" lon="6.95191">
        <ele>797.99261474609</ele>
        <time>2018-05-01T11:55:57Z</time>
      </trkpt>
      <trkpt lat="48.02143" lon="6.9517">
        <ele>797.15295410156</ele>
        <time>2018-05-01T11:56:02Z</time>
      </trkpt>
      <trkpt lat="48.02132" lon="6.95129">
        <ele>795.89184570312</ele>
        <time>2018-05-01T11:56:06Z</time>
      </trkpt>
      <trkpt lat="48.02163" lon="6.95125">
        <ele>797.82775878906</ele>
        <time>2018-05-01T11:56:14Z</time>
      </trkpt>
      <trkpt lat="48.02176" lon="6.95122">
        <ele>798.36114501953</ele>
        <time>2018-05-01T11:56:22Z</time>
      </trkpt>
      <trkpt lat="48.02195" lon="6.95109">
        <ele>800.19738769531</ele>
        <time>2018-05-01T11:56:26Z</time>
      </trkpt>
      <trkpt lat="48.02205" lon="6.95098">
        <ele>800.74633789062</ele>
        <time>2018-05-01T11:56:32Z</time>
      </trkpt>
      <trkpt lat="48.02214" lon="6.95081">
        <ele>801.34100341797</ele>
        <time>2018-05-01T11:56:35Z</time>
      </trkpt>
      <trkpt lat="48.02217" lon="6.95067">
        <ele>802.02508544922</ele>
        <time>2018-05-01T11:56:39Z</time>
      </trkpt>
      <trkpt lat="48.02215" lon="6.95054">
        <ele>801.94104003906</ele>
        <time>2018-05-01T11:56:42Z</time>
      </trkpt>
      <trkpt lat="48.0221" lon="6.95045">
        <ele>802.22473144531</ele>
        <time>2018-05-01T11:56:44Z</time>
      </trkpt>
      <trkpt lat="48.02208" lon="6.95042">
        <ele>802.41925048828</ele>
        <time>2018-05-01T11:56:46Z</time>
      </trkpt>
      <trkpt lat="48.02195" lon="6.95021">
        <ele>802.28009033203</ele>
        <time>2018-05-01T11:56:47Z</time>
      </trkpt>
      <trkpt lat="48.0219" lon="6.94999">
        <ele>802.78558349609</ele>
        <time>2018-05-01T11:56:52Z</time>
      </trkpt>
      <trkpt lat="48.02177" lon="6.9497">
        <ele>803.19995117188</ele>
        <time>2018-05-01T11:56:56Z</time>
      </trkpt>
      <trkpt lat="48.02153" lon="6.94941">
        <ele>805.86462402344</ele>
        <time>2018-05-01T11:57:02Z</time>
      </trkpt>
      <trkpt lat="48.02112" lon="6.94884">
        <ele>802.99621582031</ele>
        <time>2018-05-01T11:57:10Z</time>
      </trkpt>
      <trkpt lat="48.02023" lon="6.94786">
        <ele>802.21447753906</ele>
        <time>2018-05-01T11:57:25Z</time>
      </trkpt>
      <trkpt lat="48.01968" lon="6.94707">
        <ele>805.25756835938</ele>
        <time>2018-05-01T11:57:55Z</time>
      </trkpt>
      <trkpt lat="48.01956" lon="6.94692">
        <ele>806.77398681641</ele>
        <time>2018-05-01T11:58:15Z</time>
      </trkpt>
      <trkpt lat="48.01946" lon="6.94686">
        <ele>805.65521240234</ele>
        <time>2018-05-01T11:58:19Z</time>
      </trkpt>
      <trkpt lat="48.01941" lon="6.94679">
        <ele>806.66168212891</ele>
        <time>2018-05-01T11:58:22Z</time>
      </trkpt>
      <trkpt lat="48.01911" lon="6.94646">
        <ele>805.29272460938</ele>
        <time>2018-05-01T11:58:24Z</time>
      </trkpt>
      <trkpt lat="48.01885" lon="6.94611">
        <ele>803.81555175781</ele>
        <time>2018-05-01T11:58:34Z</time>
      </trkpt>
      <trkpt lat="48.01875" lon="6.94593">
        <ele>804.841796875</ele>
        <time>2018-05-01T11:58:43Z</time>
      </trkpt>
    </trkseg>
  </trk>
</gpx>